<?xml version="1.0" encoding="UTF-8" standalone="no" ?>
<gpx xmlns="http://www.topografix.com/GPX/1/1" xmlns:xsi="http://www.w3.org/2001/XMLSchema-instance" xsi:schemaLocation="http://www.topografix.com/GPX/1/1 http://www.topografix.com/GPX/1/1/gpx.xsd" version="1.1" creator="VisuGPX - https://www.visugpx.com">
  <metadata>
    <name>83 - L - SILLANS-LA-CASCADE </name>
    <desc><![CDATA[83 - L - SILLANS-LA-CASCADE : Roque Bérard 
2024-03-25]]></desc>
  </metadata>
  <trk>
    <name><![CDATA[SILLANS-LA-CASCADE _ Roque Bérard 2024-03-25-01]]></name>
    <trkseg>
      <trkpt lat="43.56634" lon="6.17797">
        <ele>386.4</ele>
        <time>2024-03-25T08:14:30Z</time>
      </trkpt>
      <trkpt lat="43.56634" lon="6.17798">
        <ele>386.4</ele>
        <time>2024-03-25T08:14:31Z</time>
      </trkpt>
      <trkpt lat="43.56643" lon="6.17794">
        <ele>386.2</ele>
        <time>2024-03-25T08:15:06Z</time>
      </trkpt>
      <trkpt lat="43.56652" lon="6.17792">
        <ele>385.9</ele>
        <time>2024-03-25T08:15:16Z</time>
      </trkpt>
      <trkpt lat="43.56661" lon="6.17792">
        <ele>385.5</ele>
        <time>2024-03-25T08:15:29Z</time>
      </trkpt>
      <trkpt lat="43.56671" lon="6.17793">
        <ele>384.6</ele>
        <time>2024-03-25T08:15:38Z</time>
      </trkpt>
      <trkpt lat="43.5668" lon="6.17798">
        <ele>383</ele>
        <time>2024-03-25T08:15:59Z</time>
      </trkpt>
      <trkpt lat="43.56682" lon="6.17811">
        <ele>381.2</ele>
        <time>2024-03-25T08:16:10Z</time>
      </trkpt>
      <trkpt lat="43.56677" lon="6.17822">
        <ele>380.7</ele>
        <time>2024-03-25T08:16:25Z</time>
      </trkpt>
      <trkpt lat="43.56674" lon="6.17834">
        <ele>380.6</ele>
        <time>2024-03-25T08:16:31Z</time>
      </trkpt>
      <trkpt lat="43.56675" lon="6.17848">
        <ele>380.3</ele>
        <time>2024-03-25T08:16:39Z</time>
      </trkpt>
      <trkpt lat="43.56677" lon="6.1786">
        <ele>378.5</ele>
        <time>2024-03-25T08:16:52Z</time>
      </trkpt>
      <trkpt lat="43.56676" lon="6.17873">
        <ele>377.8</ele>
        <time>2024-03-25T08:17:02Z</time>
      </trkpt>
      <trkpt lat="43.56676" lon="6.17885">
        <ele>375.7</ele>
        <time>2024-03-25T08:17:11Z</time>
      </trkpt>
      <trkpt lat="43.56676" lon="6.17898">
        <ele>377.9</ele>
        <time>2024-03-25T08:17:22Z</time>
      </trkpt>
      <trkpt lat="43.56677" lon="6.17912">
        <ele>376.9</ele>
        <time>2024-03-25T08:17:37Z</time>
      </trkpt>
      <trkpt lat="43.56678" lon="6.17926">
        <ele>376.3</ele>
        <time>2024-03-25T08:17:45Z</time>
      </trkpt>
      <trkpt lat="43.56674" lon="6.17937">
        <ele>375.3</ele>
        <time>2024-03-25T08:17:57Z</time>
      </trkpt>
      <trkpt lat="43.56673" lon="6.17951">
        <ele>375</ele>
        <time>2024-03-25T08:18:07Z</time>
      </trkpt>
      <trkpt lat="43.56671" lon="6.17963">
        <ele>374.7</ele>
        <time>2024-03-25T08:18:16Z</time>
      </trkpt>
      <trkpt lat="43.56669" lon="6.17976">
        <ele>374.4</ele>
        <time>2024-03-25T08:18:25Z</time>
      </trkpt>
      <trkpt lat="43.56664" lon="6.17986">
        <ele>373.9</ele>
        <time>2024-03-25T08:18:43Z</time>
      </trkpt>
      <trkpt lat="43.56657" lon="6.17995">
        <ele>373.2</ele>
        <time>2024-03-25T08:18:56Z</time>
      </trkpt>
      <trkpt lat="43.56647" lon="6.17996">
        <ele>372.6</ele>
        <time>2024-03-25T08:19:15Z</time>
      </trkpt>
      <trkpt lat="43.56639" lon="6.18">
        <ele>372.3</ele>
        <time>2024-03-25T08:19:24Z</time>
      </trkpt>
      <trkpt lat="43.56629" lon="6.17999">
        <ele>371.8</ele>
        <time>2024-03-25T08:19:33Z</time>
      </trkpt>
      <trkpt lat="43.5662" lon="6.18001">
        <ele>371.4</ele>
        <time>2024-03-25T08:19:42Z</time>
      </trkpt>
      <trkpt lat="43.56611" lon="6.18002">
        <ele>370.5</ele>
        <time>2024-03-25T08:19:52Z</time>
      </trkpt>
      <trkpt lat="43.56602" lon="6.18005">
        <ele>370.2</ele>
        <time>2024-03-25T08:20:06Z</time>
      </trkpt>
      <trkpt lat="43.56593" lon="6.18005">
        <ele>370</ele>
        <time>2024-03-25T08:20:27Z</time>
      </trkpt>
      <trkpt lat="43.56583" lon="6.18006">
        <ele>369.6</ele>
        <time>2024-03-25T08:20:41Z</time>
      </trkpt>
      <trkpt lat="43.56574" lon="6.18008">
        <ele>369.6</ele>
        <time>2024-03-25T08:20:53Z</time>
      </trkpt>
      <trkpt lat="43.56565" lon="6.18008">
        <ele>369.3</ele>
        <time>2024-03-25T08:21:04Z</time>
      </trkpt>
      <trkpt lat="43.56556" lon="6.18008">
        <ele>369.1</ele>
        <time>2024-03-25T08:21:49Z</time>
      </trkpt>
      <trkpt lat="43.56547" lon="6.18002">
        <ele>368.7</ele>
        <time>2024-03-25T08:22:01Z</time>
      </trkpt>
      <trkpt lat="43.56537" lon="6.18001">
        <ele>368.2</ele>
        <time>2024-03-25T08:22:13Z</time>
      </trkpt>
      <trkpt lat="43.56528" lon="6.18001">
        <ele>367.9</ele>
        <time>2024-03-25T08:22:26Z</time>
      </trkpt>
      <trkpt lat="43.56519" lon="6.18004">
        <ele>368</ele>
        <time>2024-03-25T08:22:36Z</time>
      </trkpt>
      <trkpt lat="43.56515" lon="6.18016">
        <ele>368.2</ele>
        <time>2024-03-25T08:22:47Z</time>
      </trkpt>
      <trkpt lat="43.56511" lon="6.18028">
        <ele>367.4</ele>
        <time>2024-03-25T08:22:58Z</time>
      </trkpt>
      <trkpt lat="43.56508" lon="6.18041">
        <ele>368</ele>
        <time>2024-03-25T08:23:29Z</time>
      </trkpt>
      <trkpt lat="43.56505" lon="6.18053">
        <ele>368</ele>
        <time>2024-03-25T08:23:38Z</time>
      </trkpt>
      <trkpt lat="43.56503" lon="6.18066">
        <ele>368.1</ele>
        <time>2024-03-25T08:23:49Z</time>
      </trkpt>
      <trkpt lat="43.565" lon="6.18078">
        <ele>368</ele>
        <time>2024-03-25T08:24:01Z</time>
      </trkpt>
      <trkpt lat="43.56499" lon="6.18091">
        <ele>368.1</ele>
        <time>2024-03-25T08:24:10Z</time>
      </trkpt>
      <trkpt lat="43.56498" lon="6.18104">
        <ele>369</ele>
        <time>2024-03-25T08:24:20Z</time>
      </trkpt>
      <trkpt lat="43.56493" lon="6.18115">
        <ele>368.7</ele>
        <time>2024-03-25T08:24:32Z</time>
      </trkpt>
      <trkpt lat="43.56492" lon="6.18127">
        <ele>369.2</ele>
        <time>2024-03-25T08:24:40Z</time>
      </trkpt>
      <trkpt lat="43.56489" lon="6.1814">
        <ele>368.9</ele>
        <time>2024-03-25T08:24:49Z</time>
      </trkpt>
      <trkpt lat="43.56487" lon="6.18152">
        <ele>368.8</ele>
        <time>2024-03-25T08:24:58Z</time>
      </trkpt>
      <trkpt lat="43.56485" lon="6.18166">
        <ele>368.7</ele>
        <time>2024-03-25T08:25:08Z</time>
      </trkpt>
      <trkpt lat="43.56482" lon="6.18179">
        <ele>369.1</ele>
        <time>2024-03-25T08:25:16Z</time>
      </trkpt>
      <trkpt lat="43.5648" lon="6.18193">
        <ele>369</ele>
        <time>2024-03-25T08:25:25Z</time>
      </trkpt>
      <trkpt lat="43.56476" lon="6.18204">
        <ele>368.3</ele>
        <time>2024-03-25T08:25:34Z</time>
      </trkpt>
      <trkpt lat="43.56474" lon="6.18218">
        <ele>368.2</ele>
        <time>2024-03-25T08:25:43Z</time>
      </trkpt>
      <trkpt lat="43.56472" lon="6.1823">
        <ele>369</ele>
        <time>2024-03-25T08:25:52Z</time>
      </trkpt>
      <trkpt lat="43.56465" lon="6.18239">
        <ele>367.9</ele>
        <time>2024-03-25T08:26:03Z</time>
      </trkpt>
      <trkpt lat="43.56457" lon="6.18245">
        <ele>366.3</ele>
        <time>2024-03-25T08:26:13Z</time>
      </trkpt>
      <trkpt lat="43.56456" lon="6.18258">
        <ele>365</ele>
        <time>2024-03-25T08:26:24Z</time>
      </trkpt>
      <trkpt lat="43.56454" lon="6.18272">
        <ele>364</ele>
        <time>2024-03-25T08:26:33Z</time>
      </trkpt>
      <trkpt lat="43.56449" lon="6.18283">
        <ele>363.6</ele>
        <time>2024-03-25T08:26:41Z</time>
      </trkpt>
      <trkpt lat="43.5644" lon="6.18286">
        <ele>362.8</ele>
        <time>2024-03-25T08:26:49Z</time>
      </trkpt>
      <trkpt lat="43.56435" lon="6.18275">
        <ele>362.5</ele>
        <time>2024-03-25T08:26:59Z</time>
      </trkpt>
      <trkpt lat="43.56437" lon="6.18263">
        <ele>362.6</ele>
        <time>2024-03-25T08:27:08Z</time>
      </trkpt>
      <trkpt lat="43.56438" lon="6.1825">
        <ele>362</ele>
        <time>2024-03-25T08:27:18Z</time>
      </trkpt>
      <trkpt lat="43.56439" lon="6.18237">
        <ele>364</ele>
        <time>2024-03-25T08:27:27Z</time>
      </trkpt>
      <trkpt lat="43.56437" lon="6.18223">
        <ele>363.2</ele>
        <time>2024-03-25T08:27:36Z</time>
      </trkpt>
      <trkpt lat="43.56435" lon="6.1821">
        <ele>362.8</ele>
        <time>2024-03-25T08:27:48Z</time>
      </trkpt>
      <trkpt lat="43.56433" lon="6.18198">
        <ele>362.5</ele>
        <time>2024-03-25T08:27:57Z</time>
      </trkpt>
      <trkpt lat="43.56431" lon="6.18185">
        <ele>362.3</ele>
        <time>2024-03-25T08:28:07Z</time>
      </trkpt>
      <trkpt lat="43.56422" lon="6.18181">
        <ele>362</ele>
        <time>2024-03-25T08:28:17Z</time>
      </trkpt>
      <trkpt lat="43.56415" lon="6.18191">
        <ele>362</ele>
        <time>2024-03-25T08:28:28Z</time>
      </trkpt>
      <trkpt lat="43.5641" lon="6.18203">
        <ele>362.3</ele>
        <time>2024-03-25T08:28:38Z</time>
      </trkpt>
      <trkpt lat="43.56403" lon="6.18212">
        <ele>361.8</ele>
        <time>2024-03-25T08:28:48Z</time>
      </trkpt>
      <trkpt lat="43.56395" lon="6.18219">
        <ele>361.8</ele>
        <time>2024-03-25T08:28:58Z</time>
      </trkpt>
      <trkpt lat="43.56386" lon="6.18222">
        <ele>361.7</ele>
        <time>2024-03-25T08:29:07Z</time>
      </trkpt>
      <trkpt lat="43.56377" lon="6.18222">
        <ele>361.4</ele>
        <time>2024-03-25T08:29:17Z</time>
      </trkpt>
      <trkpt lat="43.56367" lon="6.18223">
        <ele>360</ele>
        <time>2024-03-25T08:29:27Z</time>
      </trkpt>
      <trkpt lat="43.5636" lon="6.1823">
        <ele>358.5</ele>
        <time>2024-03-25T08:29:39Z</time>
      </trkpt>
      <trkpt lat="43.56352" lon="6.18238">
        <ele>357</ele>
        <time>2024-03-25T08:29:52Z</time>
      </trkpt>
      <trkpt lat="43.56347" lon="6.18249">
        <ele>355.8</ele>
        <time>2024-03-25T08:30:01Z</time>
      </trkpt>
      <trkpt lat="43.56342" lon="6.18261">
        <ele>355.4</ele>
        <time>2024-03-25T08:30:14Z</time>
      </trkpt>
      <trkpt lat="43.56335" lon="6.18267">
        <ele>353.3</ele>
        <time>2024-03-25T08:30:25Z</time>
      </trkpt>
      <trkpt lat="43.56327" lon="6.18275">
        <ele>351.4</ele>
        <time>2024-03-25T08:30:37Z</time>
      </trkpt>
      <trkpt lat="43.56323" lon="6.18287">
        <ele>350</ele>
        <time>2024-03-25T08:30:47Z</time>
      </trkpt>
      <trkpt lat="43.56319" lon="6.18299">
        <ele>348.5</ele>
        <time>2024-03-25T08:30:57Z</time>
      </trkpt>
      <trkpt lat="43.56315" lon="6.18311">
        <ele>347.4</ele>
        <time>2024-03-25T08:31:07Z</time>
      </trkpt>
      <trkpt lat="43.5631" lon="6.18321">
        <ele>345.8</ele>
        <time>2024-03-25T08:31:19Z</time>
      </trkpt>
      <trkpt lat="43.56303" lon="6.1833">
        <ele>343.6</ele>
        <time>2024-03-25T08:31:33Z</time>
      </trkpt>
      <trkpt lat="43.56301" lon="6.18343">
        <ele>341.3</ele>
        <time>2024-03-25T08:31:48Z</time>
      </trkpt>
      <trkpt lat="43.56296" lon="6.18354">
        <ele>338.6</ele>
        <time>2024-03-25T08:32:02Z</time>
      </trkpt>
      <trkpt lat="43.56289" lon="6.18363">
        <ele>337.5</ele>
        <time>2024-03-25T08:32:12Z</time>
      </trkpt>
      <trkpt lat="43.56281" lon="6.18368">
        <ele>336.5</ele>
        <time>2024-03-25T08:32:25Z</time>
      </trkpt>
      <trkpt lat="43.56271" lon="6.18367">
        <ele>336.7</ele>
        <time>2024-03-25T08:32:36Z</time>
      </trkpt>
      <trkpt lat="43.56263" lon="6.18374">
        <ele>336.7</ele>
        <time>2024-03-25T08:32:54Z</time>
      </trkpt>
      <trkpt lat="43.56256" lon="6.18381">
        <ele>337.1</ele>
        <time>2024-03-25T08:33:14Z</time>
      </trkpt>
      <trkpt lat="43.56251" lon="6.18392">
        <ele>337.8</ele>
        <time>2024-03-25T08:33:28Z</time>
      </trkpt>
      <trkpt lat="43.5625" lon="6.18405">
        <ele>338.4</ele>
        <time>2024-03-25T08:33:38Z</time>
      </trkpt>
      <trkpt lat="43.5625" lon="6.18417">
        <ele>338.1</ele>
        <time>2024-03-25T08:33:54Z</time>
      </trkpt>
      <trkpt lat="43.56253" lon="6.1843">
        <ele>338.5</ele>
        <time>2024-03-25T08:34:17Z</time>
      </trkpt>
      <trkpt lat="43.56257" lon="6.18441">
        <ele>337.1</ele>
        <time>2024-03-25T08:34:29Z</time>
      </trkpt>
      <trkpt lat="43.56266" lon="6.18439">
        <ele>334.2</ele>
        <time>2024-03-25T08:36:47Z</time>
      </trkpt>
      <trkpt lat="43.56275" lon="6.18442">
        <ele>332.9</ele>
        <time>2024-03-25T08:37:08Z</time>
      </trkpt>
      <trkpt lat="43.56279" lon="6.18453">
        <ele>331</ele>
        <time>2024-03-25T08:37:26Z</time>
      </trkpt>
      <trkpt lat="43.56288" lon="6.18451">
        <ele>325.1</ele>
        <time>2024-03-25T08:38:10Z</time>
      </trkpt>
      <trkpt lat="43.56295" lon="6.18459">
        <ele>324.6</ele>
        <time>2024-03-25T08:38:19Z</time>
      </trkpt>
      <trkpt lat="43.56299" lon="6.1847">
        <ele>319.7</ele>
        <time>2024-03-25T08:39:02Z</time>
      </trkpt>
      <trkpt lat="43.56308" lon="6.18478">
        <ele>316.4</ele>
        <time>2024-03-25T08:39:48Z</time>
      </trkpt>
      <trkpt lat="43.56313" lon="6.18489">
        <ele>315.1</ele>
        <time>2024-03-25T08:42:05Z</time>
      </trkpt>
      <trkpt lat="43.56307" lon="6.185">
        <ele>315</ele>
        <time>2024-03-25T08:42:17Z</time>
      </trkpt>
      <trkpt lat="43.56302" lon="6.18513">
        <ele>314.7</ele>
        <time>2024-03-25T08:42:30Z</time>
      </trkpt>
      <trkpt lat="43.56296" lon="6.18524">
        <ele>314.7</ele>
        <time>2024-03-25T08:42:38Z</time>
      </trkpt>
      <trkpt lat="43.56293" lon="6.18537">
        <ele>314.3</ele>
        <time>2024-03-25T08:42:50Z</time>
      </trkpt>
      <trkpt lat="43.56284" lon="6.18542">
        <ele>313.5</ele>
        <time>2024-03-25T08:43:17Z</time>
      </trkpt>
      <trkpt lat="43.56293" lon="6.18546">
        <ele>312.9</ele>
        <time>2024-03-25T08:44:02Z</time>
      </trkpt>
      <trkpt lat="43.56285" lon="6.1855">
        <ele>312.8</ele>
        <time>2024-03-25T08:44:37Z</time>
      </trkpt>
      <trkpt lat="43.56281" lon="6.18562">
        <ele>312.1</ele>
        <time>2024-03-25T08:44:55Z</time>
      </trkpt>
      <trkpt lat="43.56285" lon="6.1855">
        <ele>312.8</ele>
        <time>2024-03-25T08:45:43Z</time>
      </trkpt>
      <trkpt lat="43.56281" lon="6.18539">
        <ele>313.3</ele>
        <time>2024-03-25T08:45:58Z</time>
      </trkpt>
      <trkpt lat="43.56288" lon="6.18549">
        <ele>313.5</ele>
        <time>2024-03-25T08:46:38Z</time>
      </trkpt>
      <trkpt lat="43.56286" lon="6.18537">
        <ele>313.9</ele>
        <time>2024-03-25T08:49:32Z</time>
      </trkpt>
      <trkpt lat="43.56288" lon="6.18524">
        <ele>314.5</ele>
        <time>2024-03-25T08:50:00Z</time>
      </trkpt>
      <trkpt lat="43.56293" lon="6.18513">
        <ele>314.7</ele>
        <time>2024-03-25T08:50:11Z</time>
      </trkpt>
      <trkpt lat="43.56295" lon="6.18501">
        <ele>314.5</ele>
        <time>2024-03-25T08:50:22Z</time>
      </trkpt>
      <trkpt lat="43.56299" lon="6.18489">
        <ele>314</ele>
        <time>2024-03-25T08:50:47Z</time>
      </trkpt>
      <trkpt lat="43.56297" lon="6.18476">
        <ele>315.4</ele>
        <time>2024-03-25T08:50:58Z</time>
      </trkpt>
      <trkpt lat="43.56297" lon="6.18463">
        <ele>317.4</ele>
        <time>2024-03-25T08:51:12Z</time>
      </trkpt>
      <trkpt lat="43.56295" lon="6.18451">
        <ele>319.7</ele>
        <time>2024-03-25T08:51:24Z</time>
      </trkpt>
      <trkpt lat="43.56294" lon="6.18438">
        <ele>321.1</ele>
        <time>2024-03-25T08:51:49Z</time>
      </trkpt>
      <trkpt lat="43.56291" lon="6.18425">
        <ele>322.9</ele>
        <time>2024-03-25T08:52:24Z</time>
      </trkpt>
      <trkpt lat="43.56284" lon="6.18432">
        <ele>328.1</ele>
        <time>2024-03-25T08:53:00Z</time>
      </trkpt>
      <trkpt lat="43.56275" lon="6.18437">
        <ele>331.3</ele>
        <time>2024-03-25T08:53:20Z</time>
      </trkpt>
      <trkpt lat="43.56267" lon="6.18444">
        <ele>334</ele>
        <time>2024-03-25T08:53:42Z</time>
      </trkpt>
      <trkpt lat="43.56262" lon="6.18454">
        <ele>336.3</ele>
        <time>2024-03-25T08:54:28Z</time>
      </trkpt>
      <trkpt lat="43.56256" lon="6.18464">
        <ele>336.5</ele>
        <time>2024-03-25T08:57:17Z</time>
      </trkpt>
      <trkpt lat="43.56253" lon="6.18475">
        <ele>335.3</ele>
        <time>2024-03-25T08:57:29Z</time>
      </trkpt>
      <trkpt lat="43.56247" lon="6.18486">
        <ele>335</ele>
        <time>2024-03-25T08:57:43Z</time>
      </trkpt>
      <trkpt lat="43.56241" lon="6.18496">
        <ele>335</ele>
        <time>2024-03-25T08:57:54Z</time>
      </trkpt>
      <trkpt lat="43.56236" lon="6.18507">
        <ele>335.1</ele>
        <time>2024-03-25T08:58:19Z</time>
      </trkpt>
      <trkpt lat="43.56231" lon="6.18518">
        <ele>335.2</ele>
        <time>2024-03-25T08:58:32Z</time>
      </trkpt>
      <trkpt lat="43.5623" lon="6.18531">
        <ele>335.4</ele>
        <time>2024-03-25T08:58:45Z</time>
      </trkpt>
      <trkpt lat="43.56232" lon="6.18544">
        <ele>335.4</ele>
        <time>2024-03-25T08:58:54Z</time>
      </trkpt>
      <trkpt lat="43.5623" lon="6.18556">
        <ele>335.7</ele>
        <time>2024-03-25T08:59:06Z</time>
      </trkpt>
      <trkpt lat="43.56226" lon="6.18568">
        <ele>335.7</ele>
        <time>2024-03-25T08:59:18Z</time>
      </trkpt>
      <trkpt lat="43.56222" lon="6.1858">
        <ele>335.8</ele>
        <time>2024-03-25T08:59:26Z</time>
      </trkpt>
      <trkpt lat="43.56216" lon="6.18591">
        <ele>335.9</ele>
        <time>2024-03-25T08:59:36Z</time>
      </trkpt>
      <trkpt lat="43.56212" lon="6.18603">
        <ele>336.5</ele>
        <time>2024-03-25T08:59:47Z</time>
      </trkpt>
      <trkpt lat="43.5621" lon="6.18615">
        <ele>337.5</ele>
        <time>2024-03-25T09:00:08Z</time>
      </trkpt>
      <trkpt lat="43.56205" lon="6.18626">
        <ele>338.3</ele>
        <time>2024-03-25T09:00:19Z</time>
      </trkpt>
      <trkpt lat="43.56201" lon="6.18638">
        <ele>338.4</ele>
        <time>2024-03-25T09:00:31Z</time>
      </trkpt>
      <trkpt lat="43.56196" lon="6.1865">
        <ele>338.1</ele>
        <time>2024-03-25T09:00:40Z</time>
      </trkpt>
      <trkpt lat="43.5619" lon="6.1866">
        <ele>338</ele>
        <time>2024-03-25T09:00:51Z</time>
      </trkpt>
      <trkpt lat="43.56186" lon="6.18672">
        <ele>338.5</ele>
        <time>2024-03-25T09:01:00Z</time>
      </trkpt>
      <trkpt lat="43.5618" lon="6.18682">
        <ele>338.8</ele>
        <time>2024-03-25T09:01:10Z</time>
      </trkpt>
      <trkpt lat="43.56174" lon="6.18693">
        <ele>338.7</ele>
        <time>2024-03-25T09:01:20Z</time>
      </trkpt>
      <trkpt lat="43.56169" lon="6.18704">
        <ele>338.3</ele>
        <time>2024-03-25T09:01:31Z</time>
      </trkpt>
      <trkpt lat="43.56163" lon="6.18715">
        <ele>337.7</ele>
        <time>2024-03-25T09:01:44Z</time>
      </trkpt>
      <trkpt lat="43.56158" lon="6.18726">
        <ele>337</ele>
        <time>2024-03-25T09:01:54Z</time>
      </trkpt>
      <trkpt lat="43.56154" lon="6.18739">
        <ele>336.2</ele>
        <time>2024-03-25T09:02:07Z</time>
      </trkpt>
      <trkpt lat="43.56152" lon="6.18751">
        <ele>335.5</ele>
        <time>2024-03-25T09:02:16Z</time>
      </trkpt>
      <trkpt lat="43.56146" lon="6.18761">
        <ele>335.1</ele>
        <time>2024-03-25T09:02:25Z</time>
      </trkpt>
      <trkpt lat="43.56141" lon="6.18772">
        <ele>335.6</ele>
        <time>2024-03-25T09:02:37Z</time>
      </trkpt>
      <trkpt lat="43.56136" lon="6.18783">
        <ele>335.5</ele>
        <time>2024-03-25T09:02:47Z</time>
      </trkpt>
      <trkpt lat="43.5613" lon="6.18792">
        <ele>334.9</ele>
        <time>2024-03-25T09:02:56Z</time>
      </trkpt>
      <trkpt lat="43.56126" lon="6.18804">
        <ele>333.7</ele>
        <time>2024-03-25T09:03:06Z</time>
      </trkpt>
      <trkpt lat="43.56122" lon="6.18815">
        <ele>332.5</ele>
        <time>2024-03-25T09:03:16Z</time>
      </trkpt>
      <trkpt lat="43.56118" lon="6.18828">
        <ele>331.5</ele>
        <time>2024-03-25T09:03:25Z</time>
      </trkpt>
      <trkpt lat="43.56114" lon="6.1884">
        <ele>331.2</ele>
        <time>2024-03-25T09:03:34Z</time>
      </trkpt>
      <trkpt lat="43.56114" lon="6.18853">
        <ele>331.3</ele>
        <time>2024-03-25T09:03:44Z</time>
      </trkpt>
      <trkpt lat="43.56111" lon="6.18865">
        <ele>331.6</ele>
        <time>2024-03-25T09:03:56Z</time>
      </trkpt>
      <trkpt lat="43.56109" lon="6.18879">
        <ele>331.8</ele>
        <time>2024-03-25T09:04:14Z</time>
      </trkpt>
      <trkpt lat="43.56106" lon="6.18892">
        <ele>332.3</ele>
        <time>2024-03-25T09:04:26Z</time>
      </trkpt>
      <trkpt lat="43.56103" lon="6.18904">
        <ele>332.4</ele>
        <time>2024-03-25T09:04:38Z</time>
      </trkpt>
      <trkpt lat="43.561" lon="6.18917">
        <ele>332.8</ele>
        <time>2024-03-25T09:04:50Z</time>
      </trkpt>
      <trkpt lat="43.56096" lon="6.18928">
        <ele>332.6</ele>
        <time>2024-03-25T09:05:01Z</time>
      </trkpt>
      <trkpt lat="43.56094" lon="6.18942">
        <ele>331.5</ele>
        <time>2024-03-25T09:05:12Z</time>
      </trkpt>
      <trkpt lat="43.5609" lon="6.18953">
        <ele>329</ele>
        <time>2024-03-25T09:06:57Z</time>
      </trkpt>
      <trkpt lat="43.56088" lon="6.18966">
        <ele>328.7</ele>
        <time>2024-03-25T09:07:48Z</time>
      </trkpt>
      <trkpt lat="43.56091" lon="6.18978">
        <ele>327.6</ele>
        <time>2024-03-25T09:08:17Z</time>
      </trkpt>
      <trkpt lat="43.56082" lon="6.18983">
        <ele>326.8</ele>
        <time>2024-03-25T09:09:06Z</time>
      </trkpt>
      <trkpt lat="43.5608" lon="6.18995">
        <ele>326.2</ele>
        <time>2024-03-25T09:09:38Z</time>
      </trkpt>
      <trkpt lat="43.56082" lon="6.19007">
        <ele>326.2</ele>
        <time>2024-03-25T09:10:04Z</time>
      </trkpt>
      <trkpt lat="43.56084" lon="6.1902">
        <ele>325.2</ele>
        <time>2024-03-25T09:10:23Z</time>
      </trkpt>
      <trkpt lat="43.56086" lon="6.19032">
        <ele>323</ele>
        <time>2024-03-25T09:10:39Z</time>
      </trkpt>
      <trkpt lat="43.56088" lon="6.19044">
        <ele>321.7</ele>
        <time>2024-03-25T09:10:55Z</time>
      </trkpt>
      <trkpt lat="43.56091" lon="6.19056">
        <ele>321</ele>
        <time>2024-03-25T09:11:09Z</time>
      </trkpt>
      <trkpt lat="43.56089" lon="6.1907">
        <ele>321</ele>
        <time>2024-03-25T09:11:22Z</time>
      </trkpt>
      <trkpt lat="43.56088" lon="6.19083">
        <ele>319.3</ele>
        <time>2024-03-25T09:11:35Z</time>
      </trkpt>
      <trkpt lat="43.56089" lon="6.19096">
        <ele>318.4</ele>
        <time>2024-03-25T09:11:50Z</time>
      </trkpt>
      <trkpt lat="43.56091" lon="6.1911">
        <ele>317.8</ele>
        <time>2024-03-25T09:12:02Z</time>
      </trkpt>
      <trkpt lat="43.56091" lon="6.19122">
        <ele>316.9</ele>
        <time>2024-03-25T09:12:13Z</time>
      </trkpt>
      <trkpt lat="43.56091" lon="6.19135">
        <ele>316.6</ele>
        <time>2024-03-25T09:12:24Z</time>
      </trkpt>
      <trkpt lat="43.56095" lon="6.19146">
        <ele>316.3</ele>
        <time>2024-03-25T09:12:36Z</time>
      </trkpt>
      <trkpt lat="43.56096" lon="6.19159">
        <ele>316.1</ele>
        <time>2024-03-25T09:12:47Z</time>
      </trkpt>
      <trkpt lat="43.56103" lon="6.19167">
        <ele>315.3</ele>
        <time>2024-03-25T09:13:14Z</time>
      </trkpt>
      <trkpt lat="43.56111" lon="6.19174">
        <ele>315.3</ele>
        <time>2024-03-25T09:13:55Z</time>
      </trkpt>
      <trkpt lat="43.56117" lon="6.19186">
        <ele>316.9</ele>
        <time>2024-03-25T09:14:10Z</time>
      </trkpt>
      <trkpt lat="43.5612" lon="6.19198">
        <ele>317.2</ele>
        <time>2024-03-25T09:14:20Z</time>
      </trkpt>
      <trkpt lat="43.56125" lon="6.19208">
        <ele>317.3</ele>
        <time>2024-03-25T09:14:39Z</time>
      </trkpt>
      <trkpt lat="43.56133" lon="6.19216">
        <ele>318.7</ele>
        <time>2024-03-25T09:14:52Z</time>
      </trkpt>
      <trkpt lat="43.56134" lon="6.19228">
        <ele>321.9</ele>
        <time>2024-03-25T09:15:21Z</time>
      </trkpt>
      <trkpt lat="43.56134" lon="6.19241">
        <ele>324.3</ele>
        <time>2024-03-25T09:15:45Z</time>
      </trkpt>
      <trkpt lat="43.56129" lon="6.19253">
        <ele>326.7</ele>
        <time>2024-03-25T09:16:02Z</time>
      </trkpt>
      <trkpt lat="43.56121" lon="6.1926">
        <ele>328.9</ele>
        <time>2024-03-25T09:16:20Z</time>
      </trkpt>
      <trkpt lat="43.56113" lon="6.19263">
        <ele>331.9</ele>
        <time>2024-03-25T09:16:45Z</time>
      </trkpt>
      <trkpt lat="43.56104" lon="6.19271">
        <ele>334.3</ele>
        <time>2024-03-25T09:17:09Z</time>
      </trkpt>
      <trkpt lat="43.56096" lon="6.19278">
        <ele>337</ele>
        <time>2024-03-25T09:17:30Z</time>
      </trkpt>
      <trkpt lat="43.56092" lon="6.19266">
        <ele>340.9</ele>
        <time>2024-03-25T09:18:17Z</time>
      </trkpt>
      <trkpt lat="43.56087" lon="6.19256">
        <ele>344.5</ele>
        <time>2024-03-25T09:18:40Z</time>
      </trkpt>
      <trkpt lat="43.56081" lon="6.19246">
        <ele>347.8</ele>
        <time>2024-03-25T09:19:59Z</time>
      </trkpt>
      <trkpt lat="43.56072" lon="6.19243">
        <ele>349.7</ele>
        <time>2024-03-25T09:20:17Z</time>
      </trkpt>
      <trkpt lat="43.56063" lon="6.19241">
        <ele>353.8</ele>
        <time>2024-03-25T09:20:57Z</time>
      </trkpt>
      <trkpt lat="43.56071" lon="6.19248">
        <ele>354.2</ele>
        <time>2024-03-25T09:22:29Z</time>
      </trkpt>
      <trkpt lat="43.56073" lon="6.1926">
        <ele>350.3</ele>
        <time>2024-03-25T09:22:49Z</time>
      </trkpt>
      <trkpt lat="43.56066" lon="6.19252">
        <ele>351.6</ele>
        <time>2024-03-25T09:23:33Z</time>
      </trkpt>
      <trkpt lat="43.56061" lon="6.19241">
        <ele>354</ele>
        <time>2024-03-25T09:23:54Z</time>
      </trkpt>
      <trkpt lat="43.56052" lon="6.19243">
        <ele>359.8</ele>
        <time>2024-03-25T09:24:48Z</time>
      </trkpt>
      <trkpt lat="43.56044" lon="6.19238">
        <ele>361</ele>
        <time>2024-03-25T09:25:08Z</time>
      </trkpt>
      <trkpt lat="43.56035" lon="6.1924">
        <ele>363.9</ele>
        <time>2024-03-25T09:25:32Z</time>
      </trkpt>
      <trkpt lat="43.56026" lon="6.19237">
        <ele>366.3</ele>
        <time>2024-03-25T09:29:13Z</time>
      </trkpt>
      <trkpt lat="43.56017" lon="6.19235">
        <ele>367.5</ele>
        <time>2024-03-25T09:29:42Z</time>
      </trkpt>
      <trkpt lat="43.56007" lon="6.19234">
        <ele>368.3</ele>
        <time>2024-03-25T09:29:56Z</time>
      </trkpt>
      <trkpt lat="43.55998" lon="6.19232">
        <ele>369.1</ele>
        <time>2024-03-25T09:30:11Z</time>
      </trkpt>
      <trkpt lat="43.55989" lon="6.19231">
        <ele>370.3</ele>
        <time>2024-03-25T09:30:29Z</time>
      </trkpt>
      <trkpt lat="43.55979" lon="6.19228">
        <ele>372</ele>
        <time>2024-03-25T09:30:44Z</time>
      </trkpt>
      <trkpt lat="43.5597" lon="6.19229">
        <ele>373.4</ele>
        <time>2024-03-25T09:31:01Z</time>
      </trkpt>
      <trkpt lat="43.55961" lon="6.19228">
        <ele>374.4</ele>
        <time>2024-03-25T09:31:16Z</time>
      </trkpt>
      <trkpt lat="43.55952" lon="6.19228">
        <ele>376.1</ele>
        <time>2024-03-25T09:31:29Z</time>
      </trkpt>
      <trkpt lat="43.55943" lon="6.19225">
        <ele>377.3</ele>
        <time>2024-03-25T09:31:46Z</time>
      </trkpt>
      <trkpt lat="43.55934" lon="6.19223">
        <ele>379.2</ele>
        <time>2024-03-25T09:32:06Z</time>
      </trkpt>
      <trkpt lat="43.55925" lon="6.19223">
        <ele>380.2</ele>
        <time>2024-03-25T09:32:19Z</time>
      </trkpt>
      <trkpt lat="43.55915" lon="6.19222">
        <ele>381.7</ele>
        <time>2024-03-25T09:32:32Z</time>
      </trkpt>
      <trkpt lat="43.55906" lon="6.19221">
        <ele>383.4</ele>
        <time>2024-03-25T09:32:48Z</time>
      </trkpt>
      <trkpt lat="43.55896" lon="6.19217">
        <ele>384.6</ele>
        <time>2024-03-25T09:33:02Z</time>
      </trkpt>
      <trkpt lat="43.55887" lon="6.19217">
        <ele>386.1</ele>
        <time>2024-03-25T09:33:15Z</time>
      </trkpt>
      <trkpt lat="43.55878" lon="6.19216">
        <ele>387.8</ele>
        <time>2024-03-25T09:33:42Z</time>
      </trkpt>
      <trkpt lat="43.55869" lon="6.19214">
        <ele>390.9</ele>
        <time>2024-03-25T09:34:35Z</time>
      </trkpt>
      <trkpt lat="43.5586" lon="6.19208">
        <ele>392.5</ele>
        <time>2024-03-25T09:34:50Z</time>
      </trkpt>
      <trkpt lat="43.55851" lon="6.19205">
        <ele>393.3</ele>
        <time>2024-03-25T09:35:04Z</time>
      </trkpt>
      <trkpt lat="43.55843" lon="6.19199">
        <ele>395</ele>
        <time>2024-03-25T09:35:40Z</time>
      </trkpt>
      <trkpt lat="43.55837" lon="6.1919">
        <ele>396.8</ele>
        <time>2024-03-25T09:35:55Z</time>
      </trkpt>
      <trkpt lat="43.55835" lon="6.19178">
        <ele>399.7</ele>
        <time>2024-03-25T09:36:19Z</time>
      </trkpt>
      <trkpt lat="43.55838" lon="6.19165">
        <ele>403</ele>
        <time>2024-03-25T09:36:40Z</time>
      </trkpt>
      <trkpt lat="43.55842" lon="6.19154">
        <ele>406.8</ele>
        <time>2024-03-25T09:37:31Z</time>
      </trkpt>
      <trkpt lat="43.55851" lon="6.19152">
        <ele>408.4</ele>
        <time>2024-03-25T09:38:12Z</time>
      </trkpt>
      <trkpt lat="43.55857" lon="6.19142">
        <ele>412.2</ele>
        <time>2024-03-25T09:38:49Z</time>
      </trkpt>
      <trkpt lat="43.55852" lon="6.19132">
        <ele>413.6</ele>
        <time>2024-03-25T09:39:02Z</time>
      </trkpt>
      <trkpt lat="43.55846" lon="6.19122">
        <ele>415.2</ele>
        <time>2024-03-25T09:39:33Z</time>
      </trkpt>
      <trkpt lat="43.55853" lon="6.19113">
        <ele>417.7</ele>
        <time>2024-03-25T09:39:56Z</time>
      </trkpt>
      <trkpt lat="43.5586" lon="6.19106">
        <ele>419.6</ele>
        <time>2024-03-25T09:40:51Z</time>
      </trkpt>
      <trkpt lat="43.55865" lon="6.19095">
        <ele>423.5</ele>
        <time>2024-03-25T09:41:50Z</time>
      </trkpt>
      <trkpt lat="43.55856" lon="6.1909">
        <ele>424.1</ele>
        <time>2024-03-25T09:44:27Z</time>
      </trkpt>
      <trkpt lat="43.55853" lon="6.19078">
        <ele>426.6</ele>
        <time>2024-03-25T09:44:46Z</time>
      </trkpt>
      <trkpt lat="43.55853" lon="6.19066">
        <ele>429.4</ele>
        <time>2024-03-25T09:45:09Z</time>
      </trkpt>
      <trkpt lat="43.55858" lon="6.19055">
        <ele>432.2</ele>
        <time>2024-03-25T09:45:37Z</time>
      </trkpt>
      <trkpt lat="43.55865" lon="6.19047">
        <ele>433.6</ele>
        <time>2024-03-25T09:45:57Z</time>
      </trkpt>
      <trkpt lat="43.55869" lon="6.19035">
        <ele>436.7</ele>
        <time>2024-03-25T09:46:29Z</time>
      </trkpt>
      <trkpt lat="43.55873" lon="6.19024">
        <ele>438</ele>
        <time>2024-03-25T09:47:15Z</time>
      </trkpt>
      <trkpt lat="43.5587" lon="6.19011">
        <ele>441.4</ele>
        <time>2024-03-25T09:47:38Z</time>
      </trkpt>
      <trkpt lat="43.55867" lon="6.19">
        <ele>443.3</ele>
        <time>2024-03-25T09:47:59Z</time>
      </trkpt>
      <trkpt lat="43.55866" lon="6.18987">
        <ele>445.2</ele>
        <time>2024-03-25T09:48:21Z</time>
      </trkpt>
      <trkpt lat="43.55867" lon="6.18974">
        <ele>447.7</ele>
        <time>2024-03-25T09:48:44Z</time>
      </trkpt>
      <trkpt lat="43.55862" lon="6.18963">
        <ele>449.5</ele>
        <time>2024-03-25T09:49:01Z</time>
      </trkpt>
      <trkpt lat="43.55856" lon="6.18953">
        <ele>450.7</ele>
        <time>2024-03-25T09:49:24Z</time>
      </trkpt>
      <trkpt lat="43.55852" lon="6.18942">
        <ele>452.6</ele>
        <time>2024-03-25T09:49:45Z</time>
      </trkpt>
      <trkpt lat="43.55859" lon="6.18932">
        <ele>453.5</ele>
        <time>2024-03-25T09:50:00Z</time>
      </trkpt>
      <trkpt lat="43.55861" lon="6.1892">
        <ele>455.2</ele>
        <time>2024-03-25T09:50:21Z</time>
      </trkpt>
      <trkpt lat="43.55855" lon="6.18909">
        <ele>456.7</ele>
        <time>2024-03-25T09:50:36Z</time>
      </trkpt>
      <trkpt lat="43.55855" lon="6.18897">
        <ele>457.4</ele>
        <time>2024-03-25T09:52:57Z</time>
      </trkpt>
      <trkpt lat="43.55856" lon="6.18884">
        <ele>458.5</ele>
        <time>2024-03-25T09:53:35Z</time>
      </trkpt>
      <trkpt lat="43.55863" lon="6.18877">
        <ele>460</ele>
        <time>2024-03-25T09:53:54Z</time>
      </trkpt>
      <trkpt lat="43.55871" lon="6.18871">
        <ele>460.6</ele>
        <time>2024-03-25T09:54:07Z</time>
      </trkpt>
      <trkpt lat="43.55879" lon="6.18865">
        <ele>461.6</ele>
        <time>2024-03-25T09:54:29Z</time>
      </trkpt>
      <trkpt lat="43.55888" lon="6.18861">
        <ele>462</ele>
        <time>2024-03-25T09:54:45Z</time>
      </trkpt>
      <trkpt lat="43.55893" lon="6.1885">
        <ele>462</ele>
        <time>2024-03-25T09:55:06Z</time>
      </trkpt>
      <trkpt lat="43.55895" lon="6.18837">
        <ele>460.8</ele>
        <time>2024-03-25T09:55:38Z</time>
      </trkpt>
      <trkpt lat="43.55896" lon="6.18824">
        <ele>460.2</ele>
        <time>2024-03-25T09:56:00Z</time>
      </trkpt>
      <trkpt lat="43.55903" lon="6.18815">
        <ele>460.5</ele>
        <time>2024-03-25T09:56:13Z</time>
      </trkpt>
      <trkpt lat="43.55911" lon="6.18809">
        <ele>461.9</ele>
        <time>2024-03-25T09:56:27Z</time>
      </trkpt>
      <trkpt lat="43.55917" lon="6.188">
        <ele>462.3</ele>
        <time>2024-03-25T09:57:10Z</time>
      </trkpt>
      <trkpt lat="43.55909" lon="6.18807">
        <ele>460.8</ele>
        <time>2024-03-25T10:01:12Z</time>
      </trkpt>
      <trkpt lat="43.559" lon="6.18811">
        <ele>460.4</ele>
        <time>2024-03-25T10:01:23Z</time>
      </trkpt>
      <trkpt lat="43.55892" lon="6.18807">
        <ele>456.7</ele>
        <time>2024-03-25T10:03:19Z</time>
      </trkpt>
      <trkpt lat="43.55883" lon="6.18813">
        <ele>455.7</ele>
        <time>2024-03-25T10:03:36Z</time>
      </trkpt>
      <trkpt lat="43.55874" lon="6.18818">
        <ele>455.2</ele>
        <time>2024-03-25T10:03:53Z</time>
      </trkpt>
      <trkpt lat="43.55866" lon="6.18814">
        <ele>454.1</ele>
        <time>2024-03-25T10:04:08Z</time>
      </trkpt>
      <trkpt lat="43.55856" lon="6.18816">
        <ele>452.4</ele>
        <time>2024-03-25T10:04:24Z</time>
      </trkpt>
      <trkpt lat="43.55847" lon="6.18817">
        <ele>451.9</ele>
        <time>2024-03-25T10:04:40Z</time>
      </trkpt>
      <trkpt lat="43.5584" lon="6.18826">
        <ele>451.6</ele>
        <time>2024-03-25T10:04:53Z</time>
      </trkpt>
      <trkpt lat="43.55833" lon="6.18833">
        <ele>451.3</ele>
        <time>2024-03-25T10:05:05Z</time>
      </trkpt>
      <trkpt lat="43.55828" lon="6.18844">
        <ele>451.2</ele>
        <time>2024-03-25T10:05:15Z</time>
      </trkpt>
      <trkpt lat="43.55821" lon="6.18853">
        <ele>451.5</ele>
        <time>2024-03-25T10:05:26Z</time>
      </trkpt>
      <trkpt lat="43.55816" lon="6.18863">
        <ele>451.2</ele>
        <time>2024-03-25T10:05:36Z</time>
      </trkpt>
      <trkpt lat="43.55809" lon="6.18871">
        <ele>450.9</ele>
        <time>2024-03-25T10:05:46Z</time>
      </trkpt>
      <trkpt lat="43.55804" lon="6.18882">
        <ele>450.6</ele>
        <time>2024-03-25T10:05:58Z</time>
      </trkpt>
      <trkpt lat="43.55798" lon="6.18891">
        <ele>449.5</ele>
        <time>2024-03-25T10:06:10Z</time>
      </trkpt>
      <trkpt lat="43.55795" lon="6.18904">
        <ele>447.8</ele>
        <time>2024-03-25T10:06:35Z</time>
      </trkpt>
      <trkpt lat="43.55788" lon="6.18912">
        <ele>446.1</ele>
        <time>2024-03-25T10:06:49Z</time>
      </trkpt>
      <trkpt lat="43.55781" lon="6.1892">
        <ele>445.1</ele>
        <time>2024-03-25T10:07:02Z</time>
      </trkpt>
      <trkpt lat="43.55772" lon="6.18921">
        <ele>445.1</ele>
        <time>2024-03-25T10:07:13Z</time>
      </trkpt>
      <trkpt lat="43.55763" lon="6.18925">
        <ele>444.2</ele>
        <time>2024-03-25T10:07:28Z</time>
      </trkpt>
      <trkpt lat="43.55758" lon="6.18936">
        <ele>442.7</ele>
        <time>2024-03-25T10:07:46Z</time>
      </trkpt>
      <trkpt lat="43.55749" lon="6.18938">
        <ele>442.1</ele>
        <time>2024-03-25T10:07:58Z</time>
      </trkpt>
      <trkpt lat="43.5574" lon="6.1894">
        <ele>441.4</ele>
        <time>2024-03-25T10:08:10Z</time>
      </trkpt>
      <trkpt lat="43.55731" lon="6.18944">
        <ele>440.3</ele>
        <time>2024-03-25T10:08:26Z</time>
      </trkpt>
      <trkpt lat="43.55726" lon="6.18932">
        <ele>439</ele>
        <time>2024-03-25T10:10:15Z</time>
      </trkpt>
      <trkpt lat="43.5573" lon="6.1892">
        <ele>439.2</ele>
        <time>2024-03-25T10:11:02Z</time>
      </trkpt>
      <trkpt lat="43.55726" lon="6.18909">
        <ele>440.4</ele>
        <time>2024-03-25T10:11:25Z</time>
      </trkpt>
      <trkpt lat="43.55728" lon="6.18895">
        <ele>440.5</ele>
        <time>2024-03-25T10:11:34Z</time>
      </trkpt>
      <trkpt lat="43.5573" lon="6.18882">
        <ele>440.9</ele>
        <time>2024-03-25T10:11:45Z</time>
      </trkpt>
      <trkpt lat="43.5573" lon="6.18868">
        <ele>441.6</ele>
        <time>2024-03-25T10:11:56Z</time>
      </trkpt>
      <trkpt lat="43.55733" lon="6.18857">
        <ele>441</ele>
        <time>2024-03-25T10:12:05Z</time>
      </trkpt>
      <trkpt lat="43.55734" lon="6.18843">
        <ele>440.3</ele>
        <time>2024-03-25T10:12:18Z</time>
      </trkpt>
      <trkpt lat="43.55731" lon="6.18831">
        <ele>440.4</ele>
        <time>2024-03-25T10:12:27Z</time>
      </trkpt>
      <trkpt lat="43.5573" lon="6.18818">
        <ele>441</ele>
        <time>2024-03-25T10:12:36Z</time>
      </trkpt>
      <trkpt lat="43.55728" lon="6.18805">
        <ele>440.6</ele>
        <time>2024-03-25T10:12:46Z</time>
      </trkpt>
      <trkpt lat="43.55724" lon="6.18793">
        <ele>440.5</ele>
        <time>2024-03-25T10:12:57Z</time>
      </trkpt>
      <trkpt lat="43.55718" lon="6.18782">
        <ele>440.3</ele>
        <time>2024-03-25T10:13:07Z</time>
      </trkpt>
      <trkpt lat="43.55717" lon="6.18769">
        <ele>440.1</ele>
        <time>2024-03-25T10:13:19Z</time>
      </trkpt>
      <trkpt lat="43.55715" lon="6.18757">
        <ele>439.7</ele>
        <time>2024-03-25T10:13:29Z</time>
      </trkpt>
      <trkpt lat="43.55715" lon="6.18743">
        <ele>439.5</ele>
        <time>2024-03-25T10:13:39Z</time>
      </trkpt>
      <trkpt lat="43.55717" lon="6.1873">
        <ele>439.3</ele>
        <time>2024-03-25T10:13:51Z</time>
      </trkpt>
      <trkpt lat="43.55715" lon="6.18718">
        <ele>439.3</ele>
        <time>2024-03-25T10:14:00Z</time>
      </trkpt>
      <trkpt lat="43.55714" lon="6.18706">
        <ele>438.6</ele>
        <time>2024-03-25T10:14:10Z</time>
      </trkpt>
      <trkpt lat="43.55715" lon="6.18693">
        <ele>438.2</ele>
        <time>2024-03-25T10:14:19Z</time>
      </trkpt>
      <trkpt lat="43.55717" lon="6.1868">
        <ele>437.8</ele>
        <time>2024-03-25T10:14:32Z</time>
      </trkpt>
      <trkpt lat="43.55716" lon="6.18667">
        <ele>436.9</ele>
        <time>2024-03-25T10:14:46Z</time>
      </trkpt>
      <trkpt lat="43.55716" lon="6.18654">
        <ele>436.1</ele>
        <time>2024-03-25T10:14:56Z</time>
      </trkpt>
      <trkpt lat="43.55718" lon="6.18642">
        <ele>435.1</ele>
        <time>2024-03-25T10:15:08Z</time>
      </trkpt>
      <trkpt lat="43.5572" lon="6.18629">
        <ele>434</ele>
        <time>2024-03-25T10:15:21Z</time>
      </trkpt>
      <trkpt lat="43.55719" lon="6.18617">
        <ele>432.9</ele>
        <time>2024-03-25T10:15:32Z</time>
      </trkpt>
      <trkpt lat="43.55716" lon="6.18604">
        <ele>431.7</ele>
        <time>2024-03-25T10:15:51Z</time>
      </trkpt>
      <trkpt lat="43.55714" lon="6.18591">
        <ele>431.6</ele>
        <time>2024-03-25T10:16:04Z</time>
      </trkpt>
      <trkpt lat="43.5571" lon="6.18579">
        <ele>430.9</ele>
        <time>2024-03-25T10:16:15Z</time>
      </trkpt>
      <trkpt lat="43.55705" lon="6.18567">
        <ele>430.6</ele>
        <time>2024-03-25T10:16:26Z</time>
      </trkpt>
      <trkpt lat="43.55704" lon="6.18555">
        <ele>429.7</ele>
        <time>2024-03-25T10:16:37Z</time>
      </trkpt>
      <trkpt lat="43.55701" lon="6.18543">
        <ele>429.5</ele>
        <time>2024-03-25T10:16:46Z</time>
      </trkpt>
      <trkpt lat="43.55696" lon="6.18531">
        <ele>429.3</ele>
        <time>2024-03-25T10:16:57Z</time>
      </trkpt>
      <trkpt lat="43.55689" lon="6.18521">
        <ele>429.2</ele>
        <time>2024-03-25T10:17:07Z</time>
      </trkpt>
      <trkpt lat="43.55687" lon="6.18509">
        <ele>429.7</ele>
        <time>2024-03-25T10:17:17Z</time>
      </trkpt>
      <trkpt lat="43.55685" lon="6.18496">
        <ele>429.5</ele>
        <time>2024-03-25T10:17:27Z</time>
      </trkpt>
      <trkpt lat="43.55686" lon="6.18484">
        <ele>429.4</ele>
        <time>2024-03-25T10:17:36Z</time>
      </trkpt>
      <trkpt lat="43.55691" lon="6.18472">
        <ele>429.2</ele>
        <time>2024-03-25T10:17:46Z</time>
      </trkpt>
      <trkpt lat="43.55694" lon="6.1846">
        <ele>428.6</ele>
        <time>2024-03-25T10:17:57Z</time>
      </trkpt>
      <trkpt lat="43.55697" lon="6.18447">
        <ele>427.7</ele>
        <time>2024-03-25T10:18:08Z</time>
      </trkpt>
      <trkpt lat="43.55697" lon="6.18434">
        <ele>427.5</ele>
        <time>2024-03-25T10:18:18Z</time>
      </trkpt>
      <trkpt lat="43.55696" lon="6.18422">
        <ele>427</ele>
        <time>2024-03-25T10:18:31Z</time>
      </trkpt>
      <trkpt lat="43.55697" lon="6.18409">
        <ele>426.5</ele>
        <time>2024-03-25T10:18:45Z</time>
      </trkpt>
      <trkpt lat="43.55699" lon="6.18397">
        <ele>425.8</ele>
        <time>2024-03-25T10:18:56Z</time>
      </trkpt>
      <trkpt lat="43.557" lon="6.18384">
        <ele>425.1</ele>
        <time>2024-03-25T10:19:07Z</time>
      </trkpt>
      <trkpt lat="43.55699" lon="6.18371">
        <ele>424.8</ele>
        <time>2024-03-25T10:19:17Z</time>
      </trkpt>
      <trkpt lat="43.557" lon="6.18358">
        <ele>424.1</ele>
        <time>2024-03-25T10:19:28Z</time>
      </trkpt>
      <trkpt lat="43.55699" lon="6.18346">
        <ele>423.7</ele>
        <time>2024-03-25T10:19:37Z</time>
      </trkpt>
      <trkpt lat="43.557" lon="6.18333">
        <ele>423.2</ele>
        <time>2024-03-25T10:19:50Z</time>
      </trkpt>
      <trkpt lat="43.55706" lon="6.18323">
        <ele>422.4</ele>
        <time>2024-03-25T10:20:31Z</time>
      </trkpt>
      <trkpt lat="43.55709" lon="6.18311">
        <ele>422.6</ele>
        <time>2024-03-25T10:20:39Z</time>
      </trkpt>
      <trkpt lat="43.55714" lon="6.18299">
        <ele>422.4</ele>
        <time>2024-03-25T10:20:48Z</time>
      </trkpt>
      <trkpt lat="43.55719" lon="6.18289">
        <ele>421.7</ele>
        <time>2024-03-25T10:20:55Z</time>
      </trkpt>
      <trkpt lat="43.55724" lon="6.18278">
        <ele>421.4</ele>
        <time>2024-03-25T10:21:02Z</time>
      </trkpt>
      <trkpt lat="43.55727" lon="6.18265">
        <ele>421</ele>
        <time>2024-03-25T10:21:11Z</time>
      </trkpt>
      <trkpt lat="43.5573" lon="6.18253">
        <ele>420.8</ele>
        <time>2024-03-25T10:21:21Z</time>
      </trkpt>
      <trkpt lat="43.55735" lon="6.1824">
        <ele>420.2</ele>
        <time>2024-03-25T10:21:32Z</time>
      </trkpt>
      <trkpt lat="43.55737" lon="6.18228">
        <ele>420.1</ele>
        <time>2024-03-25T10:21:43Z</time>
      </trkpt>
      <trkpt lat="43.55738" lon="6.18215">
        <ele>419.2</ele>
        <time>2024-03-25T10:22:01Z</time>
      </trkpt>
      <trkpt lat="43.55738" lon="6.18202">
        <ele>418.9</ele>
        <time>2024-03-25T10:22:12Z</time>
      </trkpt>
      <trkpt lat="43.55735" lon="6.18191">
        <ele>418.6</ele>
        <time>2024-03-25T10:22:21Z</time>
      </trkpt>
      <trkpt lat="43.5573" lon="6.1818">
        <ele>418</ele>
        <time>2024-03-25T10:22:30Z</time>
      </trkpt>
      <trkpt lat="43.55722" lon="6.18172">
        <ele>417.6</ele>
        <time>2024-03-25T10:22:44Z</time>
      </trkpt>
      <trkpt lat="43.55714" lon="6.18169">
        <ele>416.8</ele>
        <time>2024-03-25T10:22:58Z</time>
      </trkpt>
      <trkpt lat="43.55706" lon="6.18161">
        <ele>415.5</ele>
        <time>2024-03-25T10:23:12Z</time>
      </trkpt>
      <trkpt lat="43.55701" lon="6.1815">
        <ele>413.2</ele>
        <time>2024-03-25T10:23:27Z</time>
      </trkpt>
      <trkpt lat="43.55694" lon="6.18141">
        <ele>411.7</ele>
        <time>2024-03-25T10:23:43Z</time>
      </trkpt>
      <trkpt lat="43.55686" lon="6.18135">
        <ele>409.6</ele>
        <time>2024-03-25T10:23:59Z</time>
      </trkpt>
      <trkpt lat="43.55688" lon="6.18122">
        <ele>407.4</ele>
        <time>2024-03-25T10:24:21Z</time>
      </trkpt>
      <trkpt lat="43.55693" lon="6.18111">
        <ele>405.5</ele>
        <time>2024-03-25T10:24:36Z</time>
      </trkpt>
      <trkpt lat="43.557" lon="6.18103">
        <ele>403.8</ele>
        <time>2024-03-25T10:24:52Z</time>
      </trkpt>
      <trkpt lat="43.55708" lon="6.18096">
        <ele>402.5</ele>
        <time>2024-03-25T10:25:11Z</time>
      </trkpt>
      <trkpt lat="43.55714" lon="6.18088">
        <ele>401.6</ele>
        <time>2024-03-25T10:25:23Z</time>
      </trkpt>
      <trkpt lat="43.5572" lon="6.18078">
        <ele>399.8</ele>
        <time>2024-03-25T10:25:40Z</time>
      </trkpt>
      <trkpt lat="43.55728" lon="6.18071">
        <ele>398.7</ele>
        <time>2024-03-25T10:25:53Z</time>
      </trkpt>
      <trkpt lat="43.55737" lon="6.18065">
        <ele>395.7</ele>
        <time>2024-03-25T10:26:08Z</time>
      </trkpt>
      <trkpt lat="43.55746" lon="6.18062">
        <ele>396.4</ele>
        <time>2024-03-25T10:26:20Z</time>
      </trkpt>
      <trkpt lat="43.55755" lon="6.18061">
        <ele>395.1</ele>
        <time>2024-03-25T10:26:44Z</time>
      </trkpt>
      <trkpt lat="43.55764" lon="6.18059">
        <ele>394</ele>
        <time>2024-03-25T10:27:05Z</time>
      </trkpt>
      <trkpt lat="43.55773" lon="6.18058">
        <ele>393.3</ele>
        <time>2024-03-25T10:27:31Z</time>
      </trkpt>
      <trkpt lat="43.55782" lon="6.18055">
        <ele>392.4</ele>
        <time>2024-03-25T10:27:50Z</time>
      </trkpt>
      <trkpt lat="43.55783" lon="6.18042">
        <ele>391.2</ele>
        <time>2024-03-25T10:28:13Z</time>
      </trkpt>
      <trkpt lat="43.5578" lon="6.1803">
        <ele>390.3</ele>
        <time>2024-03-25T10:28:25Z</time>
      </trkpt>
      <trkpt lat="43.55779" lon="6.18017">
        <ele>389.2</ele>
        <time>2024-03-25T10:28:42Z</time>
      </trkpt>
      <trkpt lat="43.55779" lon="6.18004">
        <ele>388.9</ele>
        <time>2024-03-25T10:28:56Z</time>
      </trkpt>
      <trkpt lat="43.55773" lon="6.17995">
        <ele>389.2</ele>
        <time>2024-03-25T10:31:25Z</time>
      </trkpt>
      <trkpt lat="43.55766" lon="6.17987">
        <ele>388.8</ele>
        <time>2024-03-25T10:31:36Z</time>
      </trkpt>
      <trkpt lat="43.55769" lon="6.17975">
        <ele>388.9</ele>
        <time>2024-03-25T10:31:51Z</time>
      </trkpt>
      <trkpt lat="43.55774" lon="6.17964">
        <ele>389.4</ele>
        <time>2024-03-25T10:32:10Z</time>
      </trkpt>
      <trkpt lat="43.5578" lon="6.17954">
        <ele>389.9</ele>
        <time>2024-03-25T10:32:21Z</time>
      </trkpt>
      <trkpt lat="43.55787" lon="6.17946">
        <ele>390.5</ele>
        <time>2024-03-25T10:32:33Z</time>
      </trkpt>
      <trkpt lat="43.55795" lon="6.17939">
        <ele>391.2</ele>
        <time>2024-03-25T10:32:45Z</time>
      </trkpt>
      <trkpt lat="43.55803" lon="6.17932">
        <ele>392.1</ele>
        <time>2024-03-25T10:32:55Z</time>
      </trkpt>
      <trkpt lat="43.55809" lon="6.17923">
        <ele>393.4</ele>
        <time>2024-03-25T10:33:13Z</time>
      </trkpt>
      <trkpt lat="43.55816" lon="6.17914">
        <ele>395</ele>
        <time>2024-03-25T10:33:25Z</time>
      </trkpt>
      <trkpt lat="43.55822" lon="6.17904">
        <ele>396.8</ele>
        <time>2024-03-25T10:33:48Z</time>
      </trkpt>
      <trkpt lat="43.55825" lon="6.17891">
        <ele>395.9</ele>
        <time>2024-03-25T10:34:16Z</time>
      </trkpt>
      <trkpt lat="43.55833" lon="6.17885">
        <ele>396.2</ele>
        <time>2024-03-25T10:36:01Z</time>
      </trkpt>
      <trkpt lat="43.55843" lon="6.17883">
        <ele>395.7</ele>
        <time>2024-03-25T10:36:12Z</time>
      </trkpt>
      <trkpt lat="43.55849" lon="6.17873">
        <ele>396.5</ele>
        <time>2024-03-25T10:36:25Z</time>
      </trkpt>
      <trkpt lat="43.55855" lon="6.17863">
        <ele>398</ele>
        <time>2024-03-25T10:36:41Z</time>
      </trkpt>
      <trkpt lat="43.55859" lon="6.1785">
        <ele>398.6</ele>
        <time>2024-03-25T10:36:58Z</time>
      </trkpt>
      <trkpt lat="43.55862" lon="6.17839">
        <ele>398.8</ele>
        <time>2024-03-25T10:37:09Z</time>
      </trkpt>
      <trkpt lat="43.55867" lon="6.17828">
        <ele>399.8</ele>
        <time>2024-03-25T10:37:19Z</time>
      </trkpt>
      <trkpt lat="43.55869" lon="6.17815">
        <ele>401.8</ele>
        <time>2024-03-25T10:37:33Z</time>
      </trkpt>
      <trkpt lat="43.55869" lon="6.17803">
        <ele>403.4</ele>
        <time>2024-03-25T10:37:45Z</time>
      </trkpt>
      <trkpt lat="43.55867" lon="6.1779">
        <ele>404.5</ele>
        <time>2024-03-25T10:37:56Z</time>
      </trkpt>
      <trkpt lat="43.5586" lon="6.17782">
        <ele>404.8</ele>
        <time>2024-03-25T10:38:27Z</time>
      </trkpt>
      <trkpt lat="43.55854" lon="6.17772">
        <ele>404.5</ele>
        <time>2024-03-25T10:38:42Z</time>
      </trkpt>
      <trkpt lat="43.55849" lon="6.17762">
        <ele>404</ele>
        <time>2024-03-25T10:38:52Z</time>
      </trkpt>
      <trkpt lat="43.55846" lon="6.17749">
        <ele>403.8</ele>
        <time>2024-03-25T10:39:03Z</time>
      </trkpt>
      <trkpt lat="43.55843" lon="6.17737">
        <ele>403</ele>
        <time>2024-03-25T10:39:14Z</time>
      </trkpt>
      <trkpt lat="43.5584" lon="6.17725">
        <ele>401.7</ele>
        <time>2024-03-25T10:39:25Z</time>
      </trkpt>
      <trkpt lat="43.55838" lon="6.17713">
        <ele>400.4</ele>
        <time>2024-03-25T10:39:36Z</time>
      </trkpt>
      <trkpt lat="43.55837" lon="6.177">
        <ele>399.4</ele>
        <time>2024-03-25T10:39:46Z</time>
      </trkpt>
      <trkpt lat="43.55835" lon="6.17687">
        <ele>398.1</ele>
        <time>2024-03-25T10:39:57Z</time>
      </trkpt>
      <trkpt lat="43.55831" lon="6.17676">
        <ele>396.7</ele>
        <time>2024-03-25T10:40:05Z</time>
      </trkpt>
      <trkpt lat="43.55829" lon="6.17663">
        <ele>395</ele>
        <time>2024-03-25T10:40:26Z</time>
      </trkpt>
      <trkpt lat="43.55822" lon="6.17653">
        <ele>393.7</ele>
        <time>2024-03-25T10:40:38Z</time>
      </trkpt>
      <trkpt lat="43.55816" lon="6.17643">
        <ele>391.9</ele>
        <time>2024-03-25T10:40:51Z</time>
      </trkpt>
      <trkpt lat="43.55809" lon="6.17634">
        <ele>391</ele>
        <time>2024-03-25T10:41:12Z</time>
      </trkpt>
      <trkpt lat="43.55803" lon="6.17625">
        <ele>390</ele>
        <time>2024-03-25T10:41:26Z</time>
      </trkpt>
      <trkpt lat="43.55798" lon="6.17614">
        <ele>388.8</ele>
        <time>2024-03-25T10:41:41Z</time>
      </trkpt>
      <trkpt lat="43.55792" lon="6.17604">
        <ele>387.7</ele>
        <time>2024-03-25T10:42:23Z</time>
      </trkpt>
      <trkpt lat="43.55786" lon="6.17594">
        <ele>386.6</ele>
        <time>2024-03-25T10:42:43Z</time>
      </trkpt>
      <trkpt lat="43.5578" lon="6.17584">
        <ele>385.1</ele>
        <time>2024-03-25T10:42:54Z</time>
      </trkpt>
      <trkpt lat="43.55772" lon="6.17576">
        <ele>383.4</ele>
        <time>2024-03-25T10:43:06Z</time>
      </trkpt>
      <trkpt lat="43.55767" lon="6.17565">
        <ele>381.6</ele>
        <time>2024-03-25T10:43:18Z</time>
      </trkpt>
      <trkpt lat="43.55764" lon="6.17553">
        <ele>380</ele>
        <time>2024-03-25T10:43:29Z</time>
      </trkpt>
      <trkpt lat="43.55762" lon="6.1754">
        <ele>379.3</ele>
        <time>2024-03-25T10:43:38Z</time>
      </trkpt>
      <trkpt lat="43.55764" lon="6.17527">
        <ele>379.5</ele>
        <time>2024-03-25T10:43:49Z</time>
      </trkpt>
      <trkpt lat="43.55766" lon="6.17515">
        <ele>380.7</ele>
        <time>2024-03-25T10:44:00Z</time>
      </trkpt>
      <trkpt lat="43.5577" lon="6.17502">
        <ele>382</ele>
        <time>2024-03-25T10:44:11Z</time>
      </trkpt>
      <trkpt lat="43.55774" lon="6.17491">
        <ele>382.5</ele>
        <time>2024-03-25T10:44:20Z</time>
      </trkpt>
      <trkpt lat="43.55778" lon="6.17478">
        <ele>383.4</ele>
        <time>2024-03-25T10:44:30Z</time>
      </trkpt>
      <trkpt lat="43.55781" lon="6.17466">
        <ele>384.3</ele>
        <time>2024-03-25T10:44:41Z</time>
      </trkpt>
      <trkpt lat="43.55784" lon="6.17453">
        <ele>385.1</ele>
        <time>2024-03-25T10:44:53Z</time>
      </trkpt>
      <trkpt lat="43.55787" lon="6.17441">
        <ele>385.6</ele>
        <time>2024-03-25T10:45:03Z</time>
      </trkpt>
      <trkpt lat="43.55789" lon="6.17428">
        <ele>386.4</ele>
        <time>2024-03-25T10:45:13Z</time>
      </trkpt>
      <trkpt lat="43.55792" lon="6.17415">
        <ele>386.9</ele>
        <time>2024-03-25T10:45:23Z</time>
      </trkpt>
      <trkpt lat="43.55797" lon="6.17405">
        <ele>387.7</ele>
        <time>2024-03-25T10:45:33Z</time>
      </trkpt>
      <trkpt lat="43.55803" lon="6.17395">
        <ele>388.8</ele>
        <time>2024-03-25T10:45:42Z</time>
      </trkpt>
      <trkpt lat="43.55809" lon="6.17385">
        <ele>389.3</ele>
        <time>2024-03-25T10:45:52Z</time>
      </trkpt>
      <trkpt lat="43.55813" lon="6.17374">
        <ele>389.7</ele>
        <time>2024-03-25T10:46:08Z</time>
      </trkpt>
      <trkpt lat="43.55816" lon="6.17361">
        <ele>391</ele>
        <time>2024-03-25T10:46:21Z</time>
      </trkpt>
      <trkpt lat="43.55818" lon="6.17348">
        <ele>392.9</ele>
        <time>2024-03-25T10:46:36Z</time>
      </trkpt>
      <trkpt lat="43.5582" lon="6.17336">
        <ele>394.5</ele>
        <time>2024-03-25T10:46:48Z</time>
      </trkpt>
      <trkpt lat="43.55826" lon="6.17326">
        <ele>395.7</ele>
        <time>2024-03-25T10:47:05Z</time>
      </trkpt>
      <trkpt lat="43.55832" lon="6.17315">
        <ele>396.3</ele>
        <time>2024-03-25T10:47:17Z</time>
      </trkpt>
      <trkpt lat="43.55836" lon="6.17303">
        <ele>396.9</ele>
        <time>2024-03-25T10:47:27Z</time>
      </trkpt>
      <trkpt lat="43.55842" lon="6.17293">
        <ele>398</ele>
        <time>2024-03-25T10:47:39Z</time>
      </trkpt>
      <trkpt lat="43.55847" lon="6.17283">
        <ele>398.8</ele>
        <time>2024-03-25T10:47:50Z</time>
      </trkpt>
      <trkpt lat="43.55854" lon="6.17273">
        <ele>400.3</ele>
        <time>2024-03-25T10:48:18Z</time>
      </trkpt>
      <trkpt lat="43.5586" lon="6.17264">
        <ele>400.9</ele>
        <time>2024-03-25T10:48:31Z</time>
      </trkpt>
      <trkpt lat="43.55867" lon="6.17255">
        <ele>401.8</ele>
        <time>2024-03-25T10:48:47Z</time>
      </trkpt>
      <trkpt lat="43.55875" lon="6.17248">
        <ele>402.7</ele>
        <time>2024-03-25T10:48:57Z</time>
      </trkpt>
      <trkpt lat="43.55881" lon="6.17238">
        <ele>403</ele>
        <time>2024-03-25T10:49:07Z</time>
      </trkpt>
      <trkpt lat="43.55889" lon="6.17232">
        <ele>403.5</ele>
        <time>2024-03-25T10:49:17Z</time>
      </trkpt>
      <trkpt lat="43.55898" lon="6.17227">
        <ele>404.5</ele>
        <time>2024-03-25T10:49:29Z</time>
      </trkpt>
      <trkpt lat="43.55907" lon="6.17223">
        <ele>404.6</ele>
        <time>2024-03-25T10:49:39Z</time>
      </trkpt>
      <trkpt lat="43.55916" lon="6.17219">
        <ele>404.7</ele>
        <time>2024-03-25T10:49:50Z</time>
      </trkpt>
      <trkpt lat="43.55924" lon="6.17214">
        <ele>405.6</ele>
        <time>2024-03-25T10:50:06Z</time>
      </trkpt>
      <trkpt lat="43.55932" lon="6.17206">
        <ele>405.7</ele>
        <time>2024-03-25T10:50:25Z</time>
      </trkpt>
      <trkpt lat="43.5594" lon="6.17201">
        <ele>406</ele>
        <time>2024-03-25T10:50:35Z</time>
      </trkpt>
      <trkpt lat="43.55948" lon="6.17195">
        <ele>406.1</ele>
        <time>2024-03-25T10:50:45Z</time>
      </trkpt>
      <trkpt lat="43.55956" lon="6.17188">
        <ele>406.5</ele>
        <time>2024-03-25T10:50:56Z</time>
      </trkpt>
      <trkpt lat="43.55964" lon="6.17181">
        <ele>406.6</ele>
        <time>2024-03-25T10:51:06Z</time>
      </trkpt>
      <trkpt lat="43.55972" lon="6.17174">
        <ele>406.5</ele>
        <time>2024-03-25T10:51:18Z</time>
      </trkpt>
      <trkpt lat="43.55981" lon="6.1717">
        <ele>406.5</ele>
        <time>2024-03-25T10:51:30Z</time>
      </trkpt>
      <trkpt lat="43.5599" lon="6.17164">
        <ele>406.7</ele>
        <time>2024-03-25T10:51:41Z</time>
      </trkpt>
      <trkpt lat="43.55998" lon="6.17159">
        <ele>406.4</ele>
        <time>2024-03-25T10:51:51Z</time>
      </trkpt>
      <trkpt lat="43.56007" lon="6.17155">
        <ele>406.2</ele>
        <time>2024-03-25T10:52:00Z</time>
      </trkpt>
      <trkpt lat="43.56016" lon="6.17151">
        <ele>405.6</ele>
        <time>2024-03-25T10:52:09Z</time>
      </trkpt>
      <trkpt lat="43.56025" lon="6.17147">
        <ele>405.3</ele>
        <time>2024-03-25T10:52:18Z</time>
      </trkpt>
      <trkpt lat="43.56034" lon="6.17144">
        <ele>405.5</ele>
        <time>2024-03-25T10:52:30Z</time>
      </trkpt>
      <trkpt lat="43.56043" lon="6.17143">
        <ele>406.2</ele>
        <time>2024-03-25T10:52:39Z</time>
      </trkpt>
      <trkpt lat="43.56052" lon="6.17143">
        <ele>406.7</ele>
        <time>2024-03-25T10:52:48Z</time>
      </trkpt>
      <trkpt lat="43.56061" lon="6.17142">
        <ele>406.9</ele>
        <time>2024-03-25T10:52:56Z</time>
      </trkpt>
      <trkpt lat="43.5607" lon="6.17139">
        <ele>407.1</ele>
        <time>2024-03-25T10:53:05Z</time>
      </trkpt>
      <trkpt lat="43.56078" lon="6.17133">
        <ele>407.7</ele>
        <time>2024-03-25T10:53:14Z</time>
      </trkpt>
      <trkpt lat="43.56083" lon="6.17123">
        <ele>408.2</ele>
        <time>2024-03-25T10:53:24Z</time>
      </trkpt>
      <trkpt lat="43.56087" lon="6.1711">
        <ele>409</ele>
        <time>2024-03-25T10:53:39Z</time>
      </trkpt>
      <trkpt lat="43.56091" lon="6.17099">
        <ele>409.9</ele>
        <time>2024-03-25T10:53:50Z</time>
      </trkpt>
      <trkpt lat="43.56095" lon="6.17086">
        <ele>410.7</ele>
        <time>2024-03-25T10:54:01Z</time>
      </trkpt>
      <trkpt lat="43.56099" lon="6.17075">
        <ele>410.8</ele>
        <time>2024-03-25T10:54:12Z</time>
      </trkpt>
      <trkpt lat="43.56098" lon="6.17062">
        <ele>411.9</ele>
        <time>2024-03-25T10:54:24Z</time>
      </trkpt>
      <trkpt lat="43.56095" lon="6.1705">
        <ele>412.6</ele>
        <time>2024-03-25T10:54:49Z</time>
      </trkpt>
      <trkpt lat="43.56089" lon="6.1704">
        <ele>413</ele>
        <time>2024-03-25T10:55:14Z</time>
      </trkpt>
      <trkpt lat="43.56082" lon="6.17031">
        <ele>412.8</ele>
        <time>2024-03-25T10:55:28Z</time>
      </trkpt>
      <trkpt lat="43.56078" lon="6.1702">
        <ele>413.8</ele>
        <time>2024-03-25T10:55:39Z</time>
      </trkpt>
      <trkpt lat="43.56073" lon="6.17009">
        <ele>413.7</ele>
        <time>2024-03-25T10:55:50Z</time>
      </trkpt>
      <trkpt lat="43.56067" lon="6.16998">
        <ele>414</ele>
        <time>2024-03-25T10:56:01Z</time>
      </trkpt>
      <trkpt lat="43.56061" lon="6.16988">
        <ele>413.6</ele>
        <time>2024-03-25T10:56:11Z</time>
      </trkpt>
      <trkpt lat="43.56055" lon="6.16979">
        <ele>414.3</ele>
        <time>2024-03-25T10:56:22Z</time>
      </trkpt>
      <trkpt lat="43.56048" lon="6.1697">
        <ele>414.6</ele>
        <time>2024-03-25T10:56:33Z</time>
      </trkpt>
      <trkpt lat="43.56043" lon="6.16959">
        <ele>414.8</ele>
        <time>2024-03-25T10:56:42Z</time>
      </trkpt>
      <trkpt lat="43.56045" lon="6.16946">
        <ele>415.4</ele>
        <time>2024-03-25T10:56:51Z</time>
      </trkpt>
      <trkpt lat="43.56046" lon="6.16933">
        <ele>416.5</ele>
        <time>2024-03-25T10:57:03Z</time>
      </trkpt>
      <trkpt lat="43.56045" lon="6.1692">
        <ele>417.8</ele>
        <time>2024-03-25T10:57:18Z</time>
      </trkpt>
      <trkpt lat="43.56038" lon="6.16913">
        <ele>418.3</ele>
        <time>2024-03-25T10:57:36Z</time>
      </trkpt>
      <trkpt lat="43.5603" lon="6.16906">
        <ele>419</ele>
        <time>2024-03-25T10:57:47Z</time>
      </trkpt>
      <trkpt lat="43.56023" lon="6.16898">
        <ele>420</ele>
        <time>2024-03-25T10:57:58Z</time>
      </trkpt>
      <trkpt lat="43.56016" lon="6.1689">
        <ele>420.3</ele>
        <time>2024-03-25T10:58:09Z</time>
      </trkpt>
      <trkpt lat="43.56008" lon="6.16882">
        <ele>420.4</ele>
        <time>2024-03-25T10:58:19Z</time>
      </trkpt>
      <trkpt lat="43.56001" lon="6.16873">
        <ele>420.9</ele>
        <time>2024-03-25T10:58:30Z</time>
      </trkpt>
      <trkpt lat="43.55995" lon="6.16864">
        <ele>421.2</ele>
        <time>2024-03-25T10:58:40Z</time>
      </trkpt>
      <trkpt lat="43.55989" lon="6.16854">
        <ele>421.9</ele>
        <time>2024-03-25T10:58:52Z</time>
      </trkpt>
      <trkpt lat="43.55999" lon="6.16854">
        <ele>422.4</ele>
        <time>2024-03-25T11:20:04Z</time>
      </trkpt>
      <trkpt lat="43.5599" lon="6.16856">
        <ele>424.6</ele>
        <time>2024-03-25T11:45:00Z</time>
      </trkpt>
      <trkpt lat="43.55998" lon="6.16862">
        <ele>424.8</ele>
        <time>2024-03-25T11:45:47Z</time>
      </trkpt>
      <trkpt lat="43.5599" lon="6.16856">
        <ele>424.7</ele>
        <time>2024-03-25T11:53:48Z</time>
      </trkpt>
      <trkpt lat="43.55981" lon="6.16852">
        <ele>425.1</ele>
        <time>2024-03-25T11:54:34Z</time>
      </trkpt>
      <trkpt lat="43.55972" lon="6.16854">
        <ele>424.6</ele>
        <time>2024-03-25T11:55:36Z</time>
      </trkpt>
      <trkpt lat="43.55963" lon="6.16857">
        <ele>424.8</ele>
        <time>2024-03-25T11:55:58Z</time>
      </trkpt>
      <trkpt lat="43.55953" lon="6.16861">
        <ele>424.3</ele>
        <time>2024-03-25T11:56:10Z</time>
      </trkpt>
      <trkpt lat="43.55944" lon="6.16862">
        <ele>423.8</ele>
        <time>2024-03-25T11:56:20Z</time>
      </trkpt>
      <trkpt lat="43.55934" lon="6.16865">
        <ele>422.9</ele>
        <time>2024-03-25T11:56:31Z</time>
      </trkpt>
      <trkpt lat="43.55925" lon="6.16868">
        <ele>422</ele>
        <time>2024-03-25T11:56:39Z</time>
      </trkpt>
      <trkpt lat="43.55918" lon="6.16877">
        <ele>421.4</ele>
        <time>2024-03-25T11:56:53Z</time>
      </trkpt>
      <trkpt lat="43.5591" lon="6.16885">
        <ele>420.5</ele>
        <time>2024-03-25T11:57:02Z</time>
      </trkpt>
      <trkpt lat="43.55902" lon="6.1689">
        <ele>419.5</ele>
        <time>2024-03-25T11:57:10Z</time>
      </trkpt>
      <trkpt lat="43.55893" lon="6.16894">
        <ele>417.9</ele>
        <time>2024-03-25T11:57:19Z</time>
      </trkpt>
      <trkpt lat="43.55885" lon="6.16897">
        <ele>417.5</ele>
        <time>2024-03-25T11:57:32Z</time>
      </trkpt>
      <trkpt lat="43.55875" lon="6.16896">
        <ele>416.3</ele>
        <time>2024-03-25T11:57:41Z</time>
      </trkpt>
      <trkpt lat="43.55865" lon="6.16894">
        <ele>416</ele>
        <time>2024-03-25T11:57:50Z</time>
      </trkpt>
      <trkpt lat="43.55856" lon="6.16893">
        <ele>415.3</ele>
        <time>2024-03-25T11:58:02Z</time>
      </trkpt>
      <trkpt lat="43.55847" lon="6.16894">
        <ele>414</ele>
        <time>2024-03-25T11:58:12Z</time>
      </trkpt>
      <trkpt lat="43.55838" lon="6.16891">
        <ele>413.9</ele>
        <time>2024-03-25T11:58:20Z</time>
      </trkpt>
      <trkpt lat="43.55829" lon="6.16888">
        <ele>412.6</ele>
        <time>2024-03-25T11:58:29Z</time>
      </trkpt>
      <trkpt lat="43.5582" lon="6.16883">
        <ele>411.9</ele>
        <time>2024-03-25T11:58:38Z</time>
      </trkpt>
      <trkpt lat="43.55812" lon="6.16876">
        <ele>411.9</ele>
        <time>2024-03-25T11:58:51Z</time>
      </trkpt>
      <trkpt lat="43.55806" lon="6.16867">
        <ele>411.8</ele>
        <time>2024-03-25T11:59:08Z</time>
      </trkpt>
      <trkpt lat="43.55801" lon="6.16855">
        <ele>411.1</ele>
        <time>2024-03-25T11:59:18Z</time>
      </trkpt>
      <trkpt lat="43.55801" lon="6.16843">
        <ele>411.6</ele>
        <time>2024-03-25T11:59:29Z</time>
      </trkpt>
      <trkpt lat="43.55802" lon="6.1683">
        <ele>411.1</ele>
        <time>2024-03-25T11:59:38Z</time>
      </trkpt>
      <trkpt lat="43.55803" lon="6.16816">
        <ele>410.9</ele>
        <time>2024-03-25T11:59:48Z</time>
      </trkpt>
      <trkpt lat="43.55806" lon="6.16804">
        <ele>411.7</ele>
        <time>2024-03-25T11:59:58Z</time>
      </trkpt>
      <trkpt lat="43.55806" lon="6.1679">
        <ele>412</ele>
        <time>2024-03-25T12:00:25Z</time>
      </trkpt>
      <trkpt lat="43.55802" lon="6.16779">
        <ele>411.6</ele>
        <time>2024-03-25T12:00:35Z</time>
      </trkpt>
      <trkpt lat="43.55797" lon="6.16768">
        <ele>411</ele>
        <time>2024-03-25T12:00:45Z</time>
      </trkpt>
      <trkpt lat="43.55791" lon="6.16758">
        <ele>410.6</ele>
        <time>2024-03-25T12:00:55Z</time>
      </trkpt>
      <trkpt lat="43.55783" lon="6.16752">
        <ele>410.2</ele>
        <time>2024-03-25T12:01:05Z</time>
      </trkpt>
      <trkpt lat="43.55778" lon="6.16742">
        <ele>410</ele>
        <time>2024-03-25T12:01:16Z</time>
      </trkpt>
      <trkpt lat="43.55775" lon="6.1673">
        <ele>408.7</ele>
        <time>2024-03-25T12:01:28Z</time>
      </trkpt>
      <trkpt lat="43.5577" lon="6.16718">
        <ele>408.1</ele>
        <time>2024-03-25T12:01:40Z</time>
      </trkpt>
      <trkpt lat="43.55766" lon="6.16707">
        <ele>407.5</ele>
        <time>2024-03-25T12:01:51Z</time>
      </trkpt>
      <trkpt lat="43.55761" lon="6.16697">
        <ele>406.6</ele>
        <time>2024-03-25T12:02:03Z</time>
      </trkpt>
      <trkpt lat="43.55753" lon="6.16688">
        <ele>405.6</ele>
        <time>2024-03-25T12:02:15Z</time>
      </trkpt>
      <trkpt lat="43.55745" lon="6.16682">
        <ele>405</ele>
        <time>2024-03-25T12:02:26Z</time>
      </trkpt>
      <trkpt lat="43.55736" lon="6.16678">
        <ele>403.4</ele>
        <time>2024-03-25T12:02:37Z</time>
      </trkpt>
      <trkpt lat="43.55727" lon="6.16675">
        <ele>402.2</ele>
        <time>2024-03-25T12:02:48Z</time>
      </trkpt>
      <trkpt lat="43.5572" lon="6.16668">
        <ele>401.5</ele>
        <time>2024-03-25T12:02:59Z</time>
      </trkpt>
      <trkpt lat="43.55714" lon="6.16657">
        <ele>401</ele>
        <time>2024-03-25T12:03:09Z</time>
      </trkpt>
      <trkpt lat="43.55709" lon="6.16646">
        <ele>401.4</ele>
        <time>2024-03-25T12:03:19Z</time>
      </trkpt>
      <trkpt lat="43.55707" lon="6.16633">
        <ele>400.9</ele>
        <time>2024-03-25T12:04:07Z</time>
      </trkpt>
      <trkpt lat="43.55706" lon="6.16621">
        <ele>400.7</ele>
        <time>2024-03-25T12:04:18Z</time>
      </trkpt>
      <trkpt lat="43.55707" lon="6.16608">
        <ele>401.3</ele>
        <time>2024-03-25T12:04:28Z</time>
      </trkpt>
      <trkpt lat="43.55707" lon="6.16595">
        <ele>400.9</ele>
        <time>2024-03-25T12:04:39Z</time>
      </trkpt>
      <trkpt lat="43.55707" lon="6.16582">
        <ele>401.2</ele>
        <time>2024-03-25T12:04:50Z</time>
      </trkpt>
      <trkpt lat="43.55708" lon="6.16569">
        <ele>400.3</ele>
        <time>2024-03-25T12:05:00Z</time>
      </trkpt>
      <trkpt lat="43.55712" lon="6.16557">
        <ele>399.9</ele>
        <time>2024-03-25T12:05:11Z</time>
      </trkpt>
      <trkpt lat="43.55719" lon="6.16547">
        <ele>400.5</ele>
        <time>2024-03-25T12:05:23Z</time>
      </trkpt>
      <trkpt lat="43.55724" lon="6.16536">
        <ele>400.1</ele>
        <time>2024-03-25T12:05:34Z</time>
      </trkpt>
      <trkpt lat="43.55728" lon="6.16525">
        <ele>398.9</ele>
        <time>2024-03-25T12:05:47Z</time>
      </trkpt>
      <trkpt lat="43.55732" lon="6.16513">
        <ele>396.7</ele>
        <time>2024-03-25T12:06:03Z</time>
      </trkpt>
      <trkpt lat="43.55732" lon="6.165">
        <ele>395.2</ele>
        <time>2024-03-25T12:06:34Z</time>
      </trkpt>
      <trkpt lat="43.55736" lon="6.16488">
        <ele>397</ele>
        <time>2024-03-25T12:06:56Z</time>
      </trkpt>
      <trkpt lat="43.55738" lon="6.16476">
        <ele>399.5</ele>
        <time>2024-03-25T12:07:16Z</time>
      </trkpt>
      <trkpt lat="43.55738" lon="6.16463">
        <ele>401.3</ele>
        <time>2024-03-25T12:07:35Z</time>
      </trkpt>
      <trkpt lat="43.55733" lon="6.16452">
        <ele>402.2</ele>
        <time>2024-03-25T12:07:47Z</time>
      </trkpt>
      <trkpt lat="43.55727" lon="6.16441">
        <ele>403.2</ele>
        <time>2024-03-25T12:07:59Z</time>
      </trkpt>
      <trkpt lat="43.55727" lon="6.16429">
        <ele>403.1</ele>
        <time>2024-03-25T12:08:10Z</time>
      </trkpt>
      <trkpt lat="43.55728" lon="6.16416">
        <ele>405.1</ele>
        <time>2024-03-25T12:08:23Z</time>
      </trkpt>
      <trkpt lat="43.55724" lon="6.16404">
        <ele>406.6</ele>
        <time>2024-03-25T12:08:50Z</time>
      </trkpt>
      <trkpt lat="43.55723" lon="6.16391">
        <ele>405.9</ele>
        <time>2024-03-25T12:09:00Z</time>
      </trkpt>
      <trkpt lat="43.55717" lon="6.1638">
        <ele>406.9</ele>
        <time>2024-03-25T12:09:09Z</time>
      </trkpt>
      <trkpt lat="43.55711" lon="6.16369">
        <ele>407</ele>
        <time>2024-03-25T12:09:19Z</time>
      </trkpt>
      <trkpt lat="43.55706" lon="6.16359">
        <ele>407.1</ele>
        <time>2024-03-25T12:09:28Z</time>
      </trkpt>
      <trkpt lat="43.55702" lon="6.16348">
        <ele>406.8</ele>
        <time>2024-03-25T12:09:37Z</time>
      </trkpt>
      <trkpt lat="43.55702" lon="6.16335">
        <ele>406.3</ele>
        <time>2024-03-25T12:09:46Z</time>
      </trkpt>
      <trkpt lat="43.55707" lon="6.16323">
        <ele>406.7</ele>
        <time>2024-03-25T12:09:57Z</time>
      </trkpt>
      <trkpt lat="43.55712" lon="6.16313">
        <ele>406.7</ele>
        <time>2024-03-25T12:10:10Z</time>
      </trkpt>
      <trkpt lat="43.55718" lon="6.16304">
        <ele>405.1</ele>
        <time>2024-03-25T12:10:19Z</time>
      </trkpt>
      <trkpt lat="43.55725" lon="6.16295">
        <ele>404.7</ele>
        <time>2024-03-25T12:10:30Z</time>
      </trkpt>
      <trkpt lat="43.55732" lon="6.16284">
        <ele>403.9</ele>
        <time>2024-03-25T12:10:43Z</time>
      </trkpt>
      <trkpt lat="43.55737" lon="6.16274">
        <ele>403.3</ele>
        <time>2024-03-25T12:10:52Z</time>
      </trkpt>
      <trkpt lat="43.55744" lon="6.16264">
        <ele>402</ele>
        <time>2024-03-25T12:11:03Z</time>
      </trkpt>
      <trkpt lat="43.55749" lon="6.16253">
        <ele>401</ele>
        <time>2024-03-25T12:11:22Z</time>
      </trkpt>
      <trkpt lat="43.5575" lon="6.1624">
        <ele>400</ele>
        <time>2024-03-25T12:11:32Z</time>
      </trkpt>
      <trkpt lat="43.55753" lon="6.16228">
        <ele>398.3</ele>
        <time>2024-03-25T12:11:45Z</time>
      </trkpt>
      <trkpt lat="43.55757" lon="6.16215">
        <ele>397.3</ele>
        <time>2024-03-25T12:11:56Z</time>
      </trkpt>
      <trkpt lat="43.55762" lon="6.16204">
        <ele>397.1</ele>
        <time>2024-03-25T12:12:05Z</time>
      </trkpt>
      <trkpt lat="43.55765" lon="6.16192">
        <ele>397.7</ele>
        <time>2024-03-25T12:12:22Z</time>
      </trkpt>
      <trkpt lat="43.55764" lon="6.16179">
        <ele>397.7</ele>
        <time>2024-03-25T12:12:32Z</time>
      </trkpt>
      <trkpt lat="43.55765" lon="6.16166">
        <ele>395.8</ele>
        <time>2024-03-25T12:12:45Z</time>
      </trkpt>
      <trkpt lat="43.55769" lon="6.16154">
        <ele>396.3</ele>
        <time>2024-03-25T12:12:55Z</time>
      </trkpt>
      <trkpt lat="43.55774" lon="6.16143">
        <ele>396.7</ele>
        <time>2024-03-25T12:13:06Z</time>
      </trkpt>
      <trkpt lat="43.55773" lon="6.1613">
        <ele>396.9</ele>
        <time>2024-03-25T12:13:17Z</time>
      </trkpt>
      <trkpt lat="43.55771" lon="6.16117">
        <ele>397.6</ele>
        <time>2024-03-25T12:13:27Z</time>
      </trkpt>
      <trkpt lat="43.55767" lon="6.16104">
        <ele>397.6</ele>
        <time>2024-03-25T12:13:39Z</time>
      </trkpt>
      <trkpt lat="43.55765" lon="6.16092">
        <ele>397.3</ele>
        <time>2024-03-25T12:13:50Z</time>
      </trkpt>
      <trkpt lat="43.55765" lon="6.16079">
        <ele>396.8</ele>
        <time>2024-03-25T12:14:01Z</time>
      </trkpt>
      <trkpt lat="43.5576" lon="6.16068">
        <ele>394.9</ele>
        <time>2024-03-25T12:14:18Z</time>
      </trkpt>
      <trkpt lat="43.55755" lon="6.16056">
        <ele>393.9</ele>
        <time>2024-03-25T12:14:30Z</time>
      </trkpt>
      <trkpt lat="43.55757" lon="6.16044">
        <ele>393.4</ele>
        <time>2024-03-25T12:14:41Z</time>
      </trkpt>
      <trkpt lat="43.55765" lon="6.16034">
        <ele>393.3</ele>
        <time>2024-03-25T12:14:51Z</time>
      </trkpt>
      <trkpt lat="43.5577" lon="6.16024">
        <ele>393.3</ele>
        <time>2024-03-25T12:15:16Z</time>
      </trkpt>
      <trkpt lat="43.55775" lon="6.16013">
        <ele>393</ele>
        <time>2024-03-25T12:20:07Z</time>
      </trkpt>
      <trkpt lat="43.5578" lon="6.16001">
        <ele>392.5</ele>
        <time>2024-03-25T12:20:21Z</time>
      </trkpt>
      <trkpt lat="43.55785" lon="6.1599">
        <ele>392.7</ele>
        <time>2024-03-25T12:20:34Z</time>
      </trkpt>
      <trkpt lat="43.55791" lon="6.15981">
        <ele>393.3</ele>
        <time>2024-03-25T12:20:46Z</time>
      </trkpt>
      <trkpt lat="43.55798" lon="6.15972">
        <ele>393.2</ele>
        <time>2024-03-25T12:20:58Z</time>
      </trkpt>
      <trkpt lat="43.55805" lon="6.15963">
        <ele>394.7</ele>
        <time>2024-03-25T12:21:08Z</time>
      </trkpt>
      <trkpt lat="43.55807" lon="6.1595">
        <ele>394.4</ele>
        <time>2024-03-25T12:21:18Z</time>
      </trkpt>
      <trkpt lat="43.55807" lon="6.15937">
        <ele>394.6</ele>
        <time>2024-03-25T12:21:28Z</time>
      </trkpt>
      <trkpt lat="43.55803" lon="6.15925">
        <ele>394.6</ele>
        <time>2024-03-25T12:22:07Z</time>
      </trkpt>
      <trkpt lat="43.55802" lon="6.15913">
        <ele>395.3</ele>
        <time>2024-03-25T12:22:19Z</time>
      </trkpt>
      <trkpt lat="43.55802" lon="6.159">
        <ele>395.4</ele>
        <time>2024-03-25T12:22:33Z</time>
      </trkpt>
      <trkpt lat="43.55808" lon="6.1589">
        <ele>396.2</ele>
        <time>2024-03-25T12:22:45Z</time>
      </trkpt>
      <trkpt lat="43.55816" lon="6.15884">
        <ele>396.5</ele>
        <time>2024-03-25T12:22:57Z</time>
      </trkpt>
      <trkpt lat="43.55825" lon="6.15878">
        <ele>397.4</ele>
        <time>2024-03-25T12:23:12Z</time>
      </trkpt>
      <trkpt lat="43.55833" lon="6.15872">
        <ele>398.1</ele>
        <time>2024-03-25T12:23:25Z</time>
      </trkpt>
      <trkpt lat="43.55838" lon="6.15862">
        <ele>399</ele>
        <time>2024-03-25T12:23:34Z</time>
      </trkpt>
      <trkpt lat="43.55844" lon="6.15852">
        <ele>399.8</ele>
        <time>2024-03-25T12:23:44Z</time>
      </trkpt>
      <trkpt lat="43.5585" lon="6.15841">
        <ele>400.3</ele>
        <time>2024-03-25T12:23:54Z</time>
      </trkpt>
      <trkpt lat="43.55856" lon="6.15832">
        <ele>401.1</ele>
        <time>2024-03-25T12:24:05Z</time>
      </trkpt>
      <trkpt lat="43.55864" lon="6.15824">
        <ele>401.6</ele>
        <time>2024-03-25T12:24:18Z</time>
      </trkpt>
      <trkpt lat="43.55871" lon="6.15816">
        <ele>403.1</ele>
        <time>2024-03-25T12:24:32Z</time>
      </trkpt>
      <trkpt lat="43.55878" lon="6.15809">
        <ele>404.5</ele>
        <time>2024-03-25T12:24:45Z</time>
      </trkpt>
      <trkpt lat="43.55885" lon="6.158">
        <ele>406.9</ele>
        <time>2024-03-25T12:24:59Z</time>
      </trkpt>
      <trkpt lat="43.55891" lon="6.1579">
        <ele>408.8</ele>
        <time>2024-03-25T12:25:12Z</time>
      </trkpt>
      <trkpt lat="43.55896" lon="6.15779">
        <ele>409.9</ele>
        <time>2024-03-25T12:25:27Z</time>
      </trkpt>
      <trkpt lat="43.559" lon="6.15767">
        <ele>412</ele>
        <time>2024-03-25T12:25:40Z</time>
      </trkpt>
      <trkpt lat="43.55905" lon="6.15756">
        <ele>413.3</ele>
        <time>2024-03-25T12:25:53Z</time>
      </trkpt>
      <trkpt lat="43.55913" lon="6.15749">
        <ele>414.8</ele>
        <time>2024-03-25T12:26:06Z</time>
      </trkpt>
      <trkpt lat="43.5592" lon="6.15741">
        <ele>415.6</ele>
        <time>2024-03-25T12:26:18Z</time>
      </trkpt>
      <trkpt lat="43.55927" lon="6.15732">
        <ele>417.3</ele>
        <time>2024-03-25T12:26:31Z</time>
      </trkpt>
      <trkpt lat="43.55933" lon="6.15722">
        <ele>418.4</ele>
        <time>2024-03-25T12:26:56Z</time>
      </trkpt>
      <trkpt lat="43.5594" lon="6.15714">
        <ele>420.1</ele>
        <time>2024-03-25T12:27:15Z</time>
      </trkpt>
      <trkpt lat="43.55949" lon="6.15709">
        <ele>421.3</ele>
        <time>2024-03-25T12:27:29Z</time>
      </trkpt>
      <trkpt lat="43.55956" lon="6.15701">
        <ele>422.4</ele>
        <time>2024-03-25T12:27:41Z</time>
      </trkpt>
      <trkpt lat="43.55962" lon="6.15692">
        <ele>423.4</ele>
        <time>2024-03-25T12:27:52Z</time>
      </trkpt>
      <trkpt lat="43.55969" lon="6.15683">
        <ele>423.6</ele>
        <time>2024-03-25T12:28:06Z</time>
      </trkpt>
      <trkpt lat="43.55976" lon="6.15673">
        <ele>425.2</ele>
        <time>2024-03-25T12:28:19Z</time>
      </trkpt>
      <trkpt lat="43.55983" lon="6.15665">
        <ele>425.6</ele>
        <time>2024-03-25T12:28:34Z</time>
      </trkpt>
      <trkpt lat="43.55989" lon="6.15656">
        <ele>426.5</ele>
        <time>2024-03-25T12:28:47Z</time>
      </trkpt>
      <trkpt lat="43.55994" lon="6.15645">
        <ele>427.3</ele>
        <time>2024-03-25T12:28:57Z</time>
      </trkpt>
      <trkpt lat="43.55997" lon="6.15632">
        <ele>427.2</ele>
        <time>2024-03-25T12:29:08Z</time>
      </trkpt>
      <trkpt lat="43.56002" lon="6.15622">
        <ele>427.7</ele>
        <time>2024-03-25T12:29:31Z</time>
      </trkpt>
      <trkpt lat="43.56006" lon="6.1561">
        <ele>427</ele>
        <time>2024-03-25T12:29:44Z</time>
      </trkpt>
      <trkpt lat="43.56012" lon="6.15599">
        <ele>427.6</ele>
        <time>2024-03-25T12:30:02Z</time>
      </trkpt>
      <trkpt lat="43.56017" lon="6.15589">
        <ele>427.2</ele>
        <time>2024-03-25T12:30:15Z</time>
      </trkpt>
      <trkpt lat="43.56023" lon="6.1558">
        <ele>427.1</ele>
        <time>2024-03-25T12:30:30Z</time>
      </trkpt>
      <trkpt lat="43.56029" lon="6.1557">
        <ele>427.8</ele>
        <time>2024-03-25T12:30:42Z</time>
      </trkpt>
      <trkpt lat="43.56035" lon="6.1556">
        <ele>428.1</ele>
        <time>2024-03-25T12:30:54Z</time>
      </trkpt>
      <trkpt lat="43.56043" lon="6.15552">
        <ele>428.7</ele>
        <time>2024-03-25T12:31:05Z</time>
      </trkpt>
      <trkpt lat="43.56051" lon="6.15545">
        <ele>429.6</ele>
        <time>2024-03-25T12:31:16Z</time>
      </trkpt>
      <trkpt lat="43.56058" lon="6.15536">
        <ele>430.3</ele>
        <time>2024-03-25T12:31:25Z</time>
      </trkpt>
      <trkpt lat="43.56066" lon="6.15531">
        <ele>431</ele>
        <time>2024-03-25T12:31:34Z</time>
      </trkpt>
      <trkpt lat="43.56076" lon="6.15527">
        <ele>431.8</ele>
        <time>2024-03-25T12:31:43Z</time>
      </trkpt>
      <trkpt lat="43.56084" lon="6.15524">
        <ele>432.3</ele>
        <time>2024-03-25T12:31:53Z</time>
      </trkpt>
      <trkpt lat="43.56094" lon="6.15523">
        <ele>433.4</ele>
        <time>2024-03-25T12:32:05Z</time>
      </trkpt>
      <trkpt lat="43.56103" lon="6.15522">
        <ele>434.8</ele>
        <time>2024-03-25T12:32:20Z</time>
      </trkpt>
      <trkpt lat="43.56113" lon="6.15519">
        <ele>435.5</ele>
        <time>2024-03-25T12:32:34Z</time>
      </trkpt>
      <trkpt lat="43.56122" lon="6.15518">
        <ele>435.6</ele>
        <time>2024-03-25T12:32:46Z</time>
      </trkpt>
      <trkpt lat="43.56132" lon="6.1552">
        <ele>437.8</ele>
        <time>2024-03-25T12:33:01Z</time>
      </trkpt>
      <trkpt lat="43.5614" lon="6.15526">
        <ele>438.6</ele>
        <time>2024-03-25T12:33:12Z</time>
      </trkpt>
      <trkpt lat="43.5615" lon="6.15526">
        <ele>439</ele>
        <time>2024-03-25T12:33:23Z</time>
      </trkpt>
      <trkpt lat="43.56159" lon="6.15526">
        <ele>438.9</ele>
        <time>2024-03-25T12:33:33Z</time>
      </trkpt>
      <trkpt lat="43.56168" lon="6.1553">
        <ele>438.1</ele>
        <time>2024-03-25T12:33:47Z</time>
      </trkpt>
      <trkpt lat="43.56171" lon="6.15541">
        <ele>438.6</ele>
        <time>2024-03-25T12:36:01Z</time>
      </trkpt>
      <trkpt lat="43.5617" lon="6.15554">
        <ele>438.3</ele>
        <time>2024-03-25T12:36:15Z</time>
      </trkpt>
      <trkpt lat="43.56172" lon="6.15567">
        <ele>438.1</ele>
        <time>2024-03-25T12:36:27Z</time>
      </trkpt>
      <trkpt lat="43.56172" lon="6.1558">
        <ele>438.4</ele>
        <time>2024-03-25T12:36:39Z</time>
      </trkpt>
      <trkpt lat="43.56175" lon="6.15592">
        <ele>438.9</ele>
        <time>2024-03-25T12:36:51Z</time>
      </trkpt>
      <trkpt lat="43.56179" lon="6.15604">
        <ele>438.5</ele>
        <time>2024-03-25T12:37:04Z</time>
      </trkpt>
      <trkpt lat="43.56182" lon="6.15616">
        <ele>438.9</ele>
        <time>2024-03-25T12:37:14Z</time>
      </trkpt>
      <trkpt lat="43.56184" lon="6.15629">
        <ele>437.2</ele>
        <time>2024-03-25T12:37:25Z</time>
      </trkpt>
      <trkpt lat="43.56187" lon="6.15641">
        <ele>436.9</ele>
        <time>2024-03-25T12:37:36Z</time>
      </trkpt>
      <trkpt lat="43.56193" lon="6.15651">
        <ele>437.6</ele>
        <time>2024-03-25T12:37:46Z</time>
      </trkpt>
      <trkpt lat="43.562" lon="6.15659">
        <ele>437.3</ele>
        <time>2024-03-25T12:37:57Z</time>
      </trkpt>
      <trkpt lat="43.56208" lon="6.15666">
        <ele>437.4</ele>
        <time>2024-03-25T12:38:08Z</time>
      </trkpt>
      <trkpt lat="43.56218" lon="6.15667">
        <ele>436.6</ele>
        <time>2024-03-25T12:38:19Z</time>
      </trkpt>
      <trkpt lat="43.56228" lon="6.15669">
        <ele>436.9</ele>
        <time>2024-03-25T12:38:31Z</time>
      </trkpt>
      <trkpt lat="43.56237" lon="6.15672">
        <ele>437</ele>
        <time>2024-03-25T12:38:43Z</time>
      </trkpt>
      <trkpt lat="43.56246" lon="6.15677">
        <ele>437.7</ele>
        <time>2024-03-25T12:38:53Z</time>
      </trkpt>
      <trkpt lat="43.56254" lon="6.15683">
        <ele>438.2</ele>
        <time>2024-03-25T12:39:05Z</time>
      </trkpt>
      <trkpt lat="43.56264" lon="6.15686">
        <ele>438.5</ele>
        <time>2024-03-25T12:39:16Z</time>
      </trkpt>
      <trkpt lat="43.56273" lon="6.15689">
        <ele>439.6</ele>
        <time>2024-03-25T12:39:26Z</time>
      </trkpt>
      <trkpt lat="43.5628" lon="6.15697">
        <ele>438.6</ele>
        <time>2024-03-25T12:39:36Z</time>
      </trkpt>
      <trkpt lat="43.56286" lon="6.15707">
        <ele>438.9</ele>
        <time>2024-03-25T12:39:47Z</time>
      </trkpt>
      <trkpt lat="43.56292" lon="6.15717">
        <ele>440.2</ele>
        <time>2024-03-25T12:40:33Z</time>
      </trkpt>
      <trkpt lat="43.56298" lon="6.15727">
        <ele>440.5</ele>
        <time>2024-03-25T12:40:53Z</time>
      </trkpt>
      <trkpt lat="43.56304" lon="6.15736">
        <ele>441.6</ele>
        <time>2024-03-25T12:41:13Z</time>
      </trkpt>
      <trkpt lat="43.56306" lon="6.15749">
        <ele>442.3</ele>
        <time>2024-03-25T12:41:38Z</time>
      </trkpt>
      <trkpt lat="43.56309" lon="6.15761">
        <ele>443</ele>
        <time>2024-03-25T12:41:51Z</time>
      </trkpt>
      <trkpt lat="43.56311" lon="6.15774">
        <ele>442.5</ele>
        <time>2024-03-25T12:42:03Z</time>
      </trkpt>
      <trkpt lat="43.56313" lon="6.15787">
        <ele>442.7</ele>
        <time>2024-03-25T12:42:14Z</time>
      </trkpt>
      <trkpt lat="43.56316" lon="6.158">
        <ele>443</ele>
        <time>2024-03-25T12:42:29Z</time>
      </trkpt>
      <trkpt lat="43.56321" lon="6.15811">
        <ele>443</ele>
        <time>2024-03-25T12:42:39Z</time>
      </trkpt>
      <trkpt lat="43.56324" lon="6.15823">
        <ele>444.1</ele>
        <time>2024-03-25T12:42:48Z</time>
      </trkpt>
      <trkpt lat="43.56324" lon="6.15836">
        <ele>444.5</ele>
        <time>2024-03-25T12:42:58Z</time>
      </trkpt>
      <trkpt lat="43.56328" lon="6.15847">
        <ele>445.2</ele>
        <time>2024-03-25T12:43:08Z</time>
      </trkpt>
      <trkpt lat="43.5633" lon="6.1586">
        <ele>446.2</ele>
        <time>2024-03-25T12:43:18Z</time>
      </trkpt>
      <trkpt lat="43.56332" lon="6.15873">
        <ele>446.2</ele>
        <time>2024-03-25T12:43:29Z</time>
      </trkpt>
      <trkpt lat="43.56334" lon="6.15886">
        <ele>446.4</ele>
        <time>2024-03-25T12:43:40Z</time>
      </trkpt>
      <trkpt lat="43.56338" lon="6.15898">
        <ele>447.3</ele>
        <time>2024-03-25T12:43:52Z</time>
      </trkpt>
      <trkpt lat="43.56341" lon="6.1591">
        <ele>447.7</ele>
        <time>2024-03-25T12:44:02Z</time>
      </trkpt>
      <trkpt lat="43.56344" lon="6.15923">
        <ele>448.3</ele>
        <time>2024-03-25T12:44:13Z</time>
      </trkpt>
      <trkpt lat="43.56345" lon="6.15936">
        <ele>448.5</ele>
        <time>2024-03-25T12:44:24Z</time>
      </trkpt>
      <trkpt lat="43.56348" lon="6.15948">
        <ele>449</ele>
        <time>2024-03-25T12:44:36Z</time>
      </trkpt>
      <trkpt lat="43.56347" lon="6.15961">
        <ele>449.5</ele>
        <time>2024-03-25T12:44:46Z</time>
      </trkpt>
      <trkpt lat="43.56345" lon="6.15973">
        <ele>448.9</ele>
        <time>2024-03-25T12:44:56Z</time>
      </trkpt>
      <trkpt lat="43.56343" lon="6.15986">
        <ele>448.9</ele>
        <time>2024-03-25T12:45:06Z</time>
      </trkpt>
      <trkpt lat="43.56339" lon="6.15998">
        <ele>448.1</ele>
        <time>2024-03-25T12:45:16Z</time>
      </trkpt>
      <trkpt lat="43.56337" lon="6.16011">
        <ele>447.7</ele>
        <time>2024-03-25T12:45:26Z</time>
      </trkpt>
      <trkpt lat="43.56336" lon="6.16024">
        <ele>447.6</ele>
        <time>2024-03-25T12:45:35Z</time>
      </trkpt>
      <trkpt lat="43.56336" lon="6.16037">
        <ele>448</ele>
        <time>2024-03-25T12:45:45Z</time>
      </trkpt>
      <trkpt lat="43.56337" lon="6.1605">
        <ele>446.9</ele>
        <time>2024-03-25T12:45:55Z</time>
      </trkpt>
      <trkpt lat="43.56336" lon="6.16062">
        <ele>447.6</ele>
        <time>2024-03-25T12:46:04Z</time>
      </trkpt>
      <trkpt lat="43.56336" lon="6.16075">
        <ele>447.3</ele>
        <time>2024-03-25T12:46:14Z</time>
      </trkpt>
      <trkpt lat="43.56336" lon="6.16089">
        <ele>447.3</ele>
        <time>2024-03-25T12:46:24Z</time>
      </trkpt>
      <trkpt lat="43.56338" lon="6.16102">
        <ele>447.7</ele>
        <time>2024-03-25T12:46:34Z</time>
      </trkpt>
      <trkpt lat="43.56337" lon="6.16114">
        <ele>447.6</ele>
        <time>2024-03-25T12:47:30Z</time>
      </trkpt>
      <trkpt lat="43.56341" lon="6.16126">
        <ele>447.5</ele>
        <time>2024-03-25T12:48:19Z</time>
      </trkpt>
      <trkpt lat="43.56344" lon="6.16138">
        <ele>446.9</ele>
        <time>2024-03-25T12:48:31Z</time>
      </trkpt>
      <trkpt lat="43.56343" lon="6.16151">
        <ele>446.2</ele>
        <time>2024-03-25T12:48:43Z</time>
      </trkpt>
      <trkpt lat="43.56342" lon="6.16164">
        <ele>444.7</ele>
        <time>2024-03-25T12:48:55Z</time>
      </trkpt>
      <trkpt lat="43.56343" lon="6.16176">
        <ele>443.5</ele>
        <time>2024-03-25T12:49:21Z</time>
      </trkpt>
      <trkpt lat="43.56346" lon="6.16188">
        <ele>443.1</ele>
        <time>2024-03-25T12:50:21Z</time>
      </trkpt>
      <trkpt lat="43.56345" lon="6.162">
        <ele>442</ele>
        <time>2024-03-25T12:50:43Z</time>
      </trkpt>
      <trkpt lat="43.56345" lon="6.16213">
        <ele>441</ele>
        <time>2024-03-25T12:50:58Z</time>
      </trkpt>
      <trkpt lat="43.56343" lon="6.16226">
        <ele>440.3</ele>
        <time>2024-03-25T12:51:08Z</time>
      </trkpt>
      <trkpt lat="43.56338" lon="6.16237">
        <ele>440.6</ele>
        <time>2024-03-25T12:51:18Z</time>
      </trkpt>
      <trkpt lat="43.56336" lon="6.16249">
        <ele>440.4</ele>
        <time>2024-03-25T12:51:30Z</time>
      </trkpt>
      <trkpt lat="43.56335" lon="6.16262">
        <ele>441.5</ele>
        <time>2024-03-25T12:51:45Z</time>
      </trkpt>
      <trkpt lat="43.56338" lon="6.16274">
        <ele>441.8</ele>
        <time>2024-03-25T12:51:59Z</time>
      </trkpt>
      <trkpt lat="43.56337" lon="6.16287">
        <ele>440.9</ele>
        <time>2024-03-25T12:52:12Z</time>
      </trkpt>
      <trkpt lat="43.56337" lon="6.163">
        <ele>442.2</ele>
        <time>2024-03-25T12:52:42Z</time>
      </trkpt>
      <trkpt lat="43.56337" lon="6.16313">
        <ele>442</ele>
        <time>2024-03-25T12:53:01Z</time>
      </trkpt>
      <trkpt lat="43.56337" lon="6.16326">
        <ele>442.4</ele>
        <time>2024-03-25T12:53:11Z</time>
      </trkpt>
      <trkpt lat="43.56336" lon="6.16339">
        <ele>441.4</ele>
        <time>2024-03-25T12:53:27Z</time>
      </trkpt>
      <trkpt lat="43.56336" lon="6.16353">
        <ele>442.3</ele>
        <time>2024-03-25T12:53:35Z</time>
      </trkpt>
      <trkpt lat="43.56336" lon="6.16365">
        <ele>440.8</ele>
        <time>2024-03-25T12:53:43Z</time>
      </trkpt>
      <trkpt lat="43.56334" lon="6.16378">
        <ele>439.5</ele>
        <time>2024-03-25T12:53:53Z</time>
      </trkpt>
      <trkpt lat="43.56331" lon="6.16391">
        <ele>438.4</ele>
        <time>2024-03-25T12:54:03Z</time>
      </trkpt>
      <trkpt lat="43.56328" lon="6.16403">
        <ele>438.1</ele>
        <time>2024-03-25T12:54:13Z</time>
      </trkpt>
      <trkpt lat="43.56325" lon="6.16415">
        <ele>438.2</ele>
        <time>2024-03-25T12:54:22Z</time>
      </trkpt>
      <trkpt lat="43.56322" lon="6.16427">
        <ele>437.1</ele>
        <time>2024-03-25T12:54:31Z</time>
      </trkpt>
      <trkpt lat="43.5632" lon="6.1644">
        <ele>437.4</ele>
        <time>2024-03-25T12:54:40Z</time>
      </trkpt>
      <trkpt lat="43.56318" lon="6.16453">
        <ele>438.3</ele>
        <time>2024-03-25T12:54:48Z</time>
      </trkpt>
      <trkpt lat="43.56316" lon="6.16466">
        <ele>438.1</ele>
        <time>2024-03-25T12:54:57Z</time>
      </trkpt>
      <trkpt lat="43.56314" lon="6.16478">
        <ele>438.6</ele>
        <time>2024-03-25T12:55:06Z</time>
      </trkpt>
      <trkpt lat="43.56313" lon="6.16492">
        <ele>438.2</ele>
        <time>2024-03-25T12:55:16Z</time>
      </trkpt>
      <trkpt lat="43.56314" lon="6.16505">
        <ele>438.3</ele>
        <time>2024-03-25T12:55:25Z</time>
      </trkpt>
      <trkpt lat="43.56315" lon="6.16519">
        <ele>438.8</ele>
        <time>2024-03-25T12:55:35Z</time>
      </trkpt>
      <trkpt lat="43.56317" lon="6.16532">
        <ele>439.1</ele>
        <time>2024-03-25T12:55:44Z</time>
      </trkpt>
      <trkpt lat="43.5632" lon="6.16544">
        <ele>437.9</ele>
        <time>2024-03-25T12:55:54Z</time>
      </trkpt>
      <trkpt lat="43.56325" lon="6.16556">
        <ele>437.5</ele>
        <time>2024-03-25T12:56:04Z</time>
      </trkpt>
      <trkpt lat="43.56329" lon="6.16567">
        <ele>436.5</ele>
        <time>2024-03-25T12:56:14Z</time>
      </trkpt>
      <trkpt lat="43.56334" lon="6.16579">
        <ele>435.4</ele>
        <time>2024-03-25T12:56:34Z</time>
      </trkpt>
      <trkpt lat="43.56339" lon="6.16589">
        <ele>434.6</ele>
        <time>2024-03-25T12:56:44Z</time>
      </trkpt>
      <trkpt lat="43.56345" lon="6.16599">
        <ele>434.5</ele>
        <time>2024-03-25T12:56:53Z</time>
      </trkpt>
      <trkpt lat="43.56351" lon="6.16608">
        <ele>434.6</ele>
        <time>2024-03-25T12:57:03Z</time>
      </trkpt>
      <trkpt lat="43.56357" lon="6.16618">
        <ele>433.7</ele>
        <time>2024-03-25T12:57:13Z</time>
      </trkpt>
      <trkpt lat="43.56362" lon="6.16629">
        <ele>433.8</ele>
        <time>2024-03-25T12:57:22Z</time>
      </trkpt>
      <trkpt lat="43.56369" lon="6.16638">
        <ele>433.7</ele>
        <time>2024-03-25T12:57:32Z</time>
      </trkpt>
      <trkpt lat="43.56375" lon="6.16649">
        <ele>434</ele>
        <time>2024-03-25T12:57:42Z</time>
      </trkpt>
      <trkpt lat="43.56382" lon="6.16659">
        <ele>434.4</ele>
        <time>2024-03-25T12:57:54Z</time>
      </trkpt>
      <trkpt lat="43.56388" lon="6.16668">
        <ele>435.4</ele>
        <time>2024-03-25T12:58:07Z</time>
      </trkpt>
      <trkpt lat="43.56393" lon="6.16679">
        <ele>436</ele>
        <time>2024-03-25T12:58:22Z</time>
      </trkpt>
      <trkpt lat="43.564" lon="6.16689">
        <ele>436.3</ele>
        <time>2024-03-25T12:58:33Z</time>
      </trkpt>
      <trkpt lat="43.56407" lon="6.16697">
        <ele>436.9</ele>
        <time>2024-03-25T12:58:44Z</time>
      </trkpt>
      <trkpt lat="43.56412" lon="6.16708">
        <ele>437.1</ele>
        <time>2024-03-25T12:58:55Z</time>
      </trkpt>
      <trkpt lat="43.56418" lon="6.16717">
        <ele>438.1</ele>
        <time>2024-03-25T12:59:06Z</time>
      </trkpt>
      <trkpt lat="43.56424" lon="6.16728">
        <ele>438.5</ele>
        <time>2024-03-25T12:59:17Z</time>
      </trkpt>
      <trkpt lat="43.5643" lon="6.16737">
        <ele>439.4</ele>
        <time>2024-03-25T12:59:27Z</time>
      </trkpt>
      <trkpt lat="43.56437" lon="6.16747">
        <ele>440.4</ele>
        <time>2024-03-25T12:59:38Z</time>
      </trkpt>
      <trkpt lat="43.56442" lon="6.16758">
        <ele>440.7</ele>
        <time>2024-03-25T12:59:46Z</time>
      </trkpt>
      <trkpt lat="43.56448" lon="6.16769">
        <ele>441.1</ele>
        <time>2024-03-25T12:59:56Z</time>
      </trkpt>
      <trkpt lat="43.56453" lon="6.1678">
        <ele>441.5</ele>
        <time>2024-03-25T13:00:06Z</time>
      </trkpt>
      <trkpt lat="43.5646" lon="6.16789">
        <ele>441.6</ele>
        <time>2024-03-25T13:00:17Z</time>
      </trkpt>
      <trkpt lat="43.56465" lon="6.168">
        <ele>442.2</ele>
        <time>2024-03-25T13:00:28Z</time>
      </trkpt>
      <trkpt lat="43.56471" lon="6.1681">
        <ele>442.5</ele>
        <time>2024-03-25T13:00:38Z</time>
      </trkpt>
      <trkpt lat="43.56475" lon="6.16822">
        <ele>441.6</ele>
        <time>2024-03-25T13:00:50Z</time>
      </trkpt>
      <trkpt lat="43.56478" lon="6.16833">
        <ele>442.6</ele>
        <time>2024-03-25T13:01:00Z</time>
      </trkpt>
      <trkpt lat="43.56482" lon="6.16845">
        <ele>443.3</ele>
        <time>2024-03-25T13:01:10Z</time>
      </trkpt>
      <trkpt lat="43.56487" lon="6.16856">
        <ele>443.2</ele>
        <time>2024-03-25T13:01:21Z</time>
      </trkpt>
      <trkpt lat="43.56491" lon="6.16867">
        <ele>443.3</ele>
        <time>2024-03-25T13:01:32Z</time>
      </trkpt>
      <trkpt lat="43.56497" lon="6.16878">
        <ele>443.1</ele>
        <time>2024-03-25T13:01:42Z</time>
      </trkpt>
      <trkpt lat="43.56503" lon="6.16888">
        <ele>444.1</ele>
        <time>2024-03-25T13:01:52Z</time>
      </trkpt>
      <trkpt lat="43.56509" lon="6.16899">
        <ele>443.6</ele>
        <time>2024-03-25T13:02:04Z</time>
      </trkpt>
      <trkpt lat="43.56515" lon="6.16909">
        <ele>444</ele>
        <time>2024-03-25T13:02:17Z</time>
      </trkpt>
      <trkpt lat="43.56521" lon="6.16919">
        <ele>444</ele>
        <time>2024-03-25T13:02:27Z</time>
      </trkpt>
      <trkpt lat="43.56528" lon="6.16929">
        <ele>443.7</ele>
        <time>2024-03-25T13:02:38Z</time>
      </trkpt>
      <trkpt lat="43.56532" lon="6.16941">
        <ele>444.2</ele>
        <time>2024-03-25T13:02:49Z</time>
      </trkpt>
      <trkpt lat="43.56539" lon="6.1695">
        <ele>443.9</ele>
        <time>2024-03-25T13:03:00Z</time>
      </trkpt>
      <trkpt lat="43.56544" lon="6.1696">
        <ele>444</ele>
        <time>2024-03-25T13:03:40Z</time>
      </trkpt>
      <trkpt lat="43.56553" lon="6.16965">
        <ele>444.4</ele>
        <time>2024-03-25T13:03:51Z</time>
      </trkpt>
      <trkpt lat="43.56544" lon="6.16964">
        <ele>443.8</ele>
        <time>2024-03-25T13:04:14Z</time>
      </trkpt>
      <trkpt lat="43.56553" lon="6.16968">
        <ele>444.4</ele>
        <time>2024-03-25T13:05:28Z</time>
      </trkpt>
      <trkpt lat="43.5656" lon="6.16978">
        <ele>444.1</ele>
        <time>2024-03-25T13:05:38Z</time>
      </trkpt>
      <trkpt lat="43.56568" lon="6.16985">
        <ele>443.3</ele>
        <time>2024-03-25T13:05:45Z</time>
      </trkpt>
      <trkpt lat="43.56574" lon="6.16994">
        <ele>442.8</ele>
        <time>2024-03-25T13:05:54Z</time>
      </trkpt>
      <trkpt lat="43.56581" lon="6.17003">
        <ele>442.2</ele>
        <time>2024-03-25T13:06:02Z</time>
      </trkpt>
      <trkpt lat="43.56588" lon="6.17014">
        <ele>441.7</ele>
        <time>2024-03-25T13:06:11Z</time>
      </trkpt>
      <trkpt lat="43.56593" lon="6.17025">
        <ele>441.2</ele>
        <time>2024-03-25T13:06:20Z</time>
      </trkpt>
      <trkpt lat="43.56599" lon="6.17035">
        <ele>440.8</ele>
        <time>2024-03-25T13:06:30Z</time>
      </trkpt>
      <trkpt lat="43.56608" lon="6.17039">
        <ele>441.1</ele>
        <time>2024-03-25T13:06:39Z</time>
      </trkpt>
      <trkpt lat="43.56616" lon="6.17048">
        <ele>439.2</ele>
        <time>2024-03-25T13:06:50Z</time>
      </trkpt>
      <trkpt lat="43.56623" lon="6.17056">
        <ele>437.2</ele>
        <time>2024-03-25T13:07:02Z</time>
      </trkpt>
      <trkpt lat="43.56629" lon="6.17065">
        <ele>437.7</ele>
        <time>2024-03-25T13:07:12Z</time>
      </trkpt>
      <trkpt lat="43.56635" lon="6.17075">
        <ele>436.6</ele>
        <time>2024-03-25T13:07:22Z</time>
      </trkpt>
      <trkpt lat="43.56641" lon="6.17086">
        <ele>435.8</ele>
        <time>2024-03-25T13:07:33Z</time>
      </trkpt>
      <trkpt lat="43.56646" lon="6.17096">
        <ele>435.2</ele>
        <time>2024-03-25T13:07:44Z</time>
      </trkpt>
      <trkpt lat="43.56653" lon="6.17107">
        <ele>434.7</ele>
        <time>2024-03-25T13:07:54Z</time>
      </trkpt>
      <trkpt lat="43.56659" lon="6.17116">
        <ele>434</ele>
        <time>2024-03-25T13:08:03Z</time>
      </trkpt>
      <trkpt lat="43.56664" lon="6.17127">
        <ele>433.2</ele>
        <time>2024-03-25T13:08:13Z</time>
      </trkpt>
      <trkpt lat="43.56669" lon="6.17138">
        <ele>432.5</ele>
        <time>2024-03-25T13:08:23Z</time>
      </trkpt>
      <trkpt lat="43.56675" lon="6.17148">
        <ele>432.4</ele>
        <time>2024-03-25T13:08:33Z</time>
      </trkpt>
      <trkpt lat="43.56681" lon="6.17159">
        <ele>431.9</ele>
        <time>2024-03-25T13:08:43Z</time>
      </trkpt>
      <trkpt lat="43.56686" lon="6.1717">
        <ele>431.2</ele>
        <time>2024-03-25T13:08:54Z</time>
      </trkpt>
      <trkpt lat="43.56693" lon="6.17179">
        <ele>431.5</ele>
        <time>2024-03-25T13:09:04Z</time>
      </trkpt>
      <trkpt lat="43.56699" lon="6.17188">
        <ele>431.5</ele>
        <time>2024-03-25T13:09:14Z</time>
      </trkpt>
      <trkpt lat="43.56705" lon="6.17197">
        <ele>431.4</ele>
        <time>2024-03-25T13:09:23Z</time>
      </trkpt>
      <trkpt lat="43.56711" lon="6.17207">
        <ele>431.8</ele>
        <time>2024-03-25T13:09:42Z</time>
      </trkpt>
      <trkpt lat="43.56718" lon="6.17216">
        <ele>430.7</ele>
        <time>2024-03-25T13:10:00Z</time>
      </trkpt>
      <trkpt lat="43.56718" lon="6.17229">
        <ele>430.6</ele>
        <time>2024-03-25T13:10:18Z</time>
      </trkpt>
      <trkpt lat="43.56714" lon="6.1724">
        <ele>432.2</ele>
        <time>2024-03-25T13:10:34Z</time>
      </trkpt>
      <trkpt lat="43.5671" lon="6.17251">
        <ele>434.1</ele>
        <time>2024-03-25T13:10:47Z</time>
      </trkpt>
      <trkpt lat="43.56702" lon="6.17259">
        <ele>434.9</ele>
        <time>2024-03-25T13:10:59Z</time>
      </trkpt>
      <trkpt lat="43.56694" lon="6.17266">
        <ele>436.6</ele>
        <time>2024-03-25T13:11:13Z</time>
      </trkpt>
      <trkpt lat="43.56686" lon="6.17272">
        <ele>437.7</ele>
        <time>2024-03-25T13:11:35Z</time>
      </trkpt>
      <trkpt lat="43.56678" lon="6.17279">
        <ele>437.3</ele>
        <time>2024-03-25T13:11:57Z</time>
      </trkpt>
      <trkpt lat="43.5667" lon="6.17285">
        <ele>437.1</ele>
        <time>2024-03-25T13:12:10Z</time>
      </trkpt>
      <trkpt lat="43.56662" lon="6.17292">
        <ele>437.1</ele>
        <time>2024-03-25T13:12:24Z</time>
      </trkpt>
      <trkpt lat="43.56654" lon="6.17298">
        <ele>436.6</ele>
        <time>2024-03-25T13:12:36Z</time>
      </trkpt>
      <trkpt lat="43.56645" lon="6.17302">
        <ele>435.3</ele>
        <time>2024-03-25T13:12:55Z</time>
      </trkpt>
      <trkpt lat="43.56637" lon="6.17307">
        <ele>433.7</ele>
        <time>2024-03-25T13:13:11Z</time>
      </trkpt>
      <trkpt lat="43.56628" lon="6.17313">
        <ele>432.7</ele>
        <time>2024-03-25T13:13:25Z</time>
      </trkpt>
      <trkpt lat="43.5662" lon="6.17319">
        <ele>433.2</ele>
        <time>2024-03-25T13:13:39Z</time>
      </trkpt>
      <trkpt lat="43.56612" lon="6.17326">
        <ele>433.5</ele>
        <time>2024-03-25T13:14:22Z</time>
      </trkpt>
      <trkpt lat="43.56603" lon="6.17329">
        <ele>432.8</ele>
        <time>2024-03-25T13:14:37Z</time>
      </trkpt>
      <trkpt lat="43.56594" lon="6.17334">
        <ele>431.8</ele>
        <time>2024-03-25T13:14:56Z</time>
      </trkpt>
      <trkpt lat="43.56586" lon="6.1734">
        <ele>431.6</ele>
        <time>2024-03-25T13:15:10Z</time>
      </trkpt>
      <trkpt lat="43.56577" lon="6.17346">
        <ele>431.4</ele>
        <time>2024-03-25T13:16:03Z</time>
      </trkpt>
      <trkpt lat="43.5657" lon="6.17353">
        <ele>430</ele>
        <time>2024-03-25T13:16:45Z</time>
      </trkpt>
      <trkpt lat="43.56561" lon="6.17349">
        <ele>429.5</ele>
        <time>2024-03-25T13:20:07Z</time>
      </trkpt>
      <trkpt lat="43.56554" lon="6.17358">
        <ele>429.5</ele>
        <time>2024-03-25T13:20:25Z</time>
      </trkpt>
      <trkpt lat="43.56546" lon="6.17366">
        <ele>428.8</ele>
        <time>2024-03-25T13:20:40Z</time>
      </trkpt>
      <trkpt lat="43.56537" lon="6.1737">
        <ele>427.7</ele>
        <time>2024-03-25T13:20:54Z</time>
      </trkpt>
      <trkpt lat="43.56529" lon="6.17375">
        <ele>427.9</ele>
        <time>2024-03-25T13:21:10Z</time>
      </trkpt>
      <trkpt lat="43.5652" lon="6.1738">
        <ele>428.4</ele>
        <time>2024-03-25T13:21:22Z</time>
      </trkpt>
      <trkpt lat="43.56512" lon="6.17385">
        <ele>429.4</ele>
        <time>2024-03-25T13:21:38Z</time>
      </trkpt>
      <trkpt lat="43.56504" lon="6.17394">
        <ele>428.4</ele>
        <time>2024-03-25T13:21:51Z</time>
      </trkpt>
      <trkpt lat="43.56496" lon="6.17398">
        <ele>426.7</ele>
        <time>2024-03-25T13:22:08Z</time>
      </trkpt>
      <trkpt lat="43.56487" lon="6.174">
        <ele>427</ele>
        <time>2024-03-25T13:22:23Z</time>
      </trkpt>
      <trkpt lat="43.56481" lon="6.1741">
        <ele>427.2</ele>
        <time>2024-03-25T13:23:24Z</time>
      </trkpt>
      <trkpt lat="43.56481" lon="6.17422">
        <ele>427.8</ele>
        <time>2024-03-25T13:23:38Z</time>
      </trkpt>
      <trkpt lat="43.56485" lon="6.17435">
        <ele>428.9</ele>
        <time>2024-03-25T13:23:52Z</time>
      </trkpt>
      <trkpt lat="43.56489" lon="6.17447">
        <ele>429.9</ele>
        <time>2024-03-25T13:24:05Z</time>
      </trkpt>
      <trkpt lat="43.56491" lon="6.1746">
        <ele>430</ele>
        <time>2024-03-25T13:24:19Z</time>
      </trkpt>
      <trkpt lat="43.56492" lon="6.17472">
        <ele>430.1</ele>
        <time>2024-03-25T13:24:29Z</time>
      </trkpt>
      <trkpt lat="43.56495" lon="6.17485">
        <ele>430.6</ele>
        <time>2024-03-25T13:24:40Z</time>
      </trkpt>
      <trkpt lat="43.56497" lon="6.17498">
        <ele>431.9</ele>
        <time>2024-03-25T13:24:50Z</time>
      </trkpt>
      <trkpt lat="43.56498" lon="6.17511">
        <ele>432.6</ele>
        <time>2024-03-25T13:25:02Z</time>
      </trkpt>
      <trkpt lat="43.56497" lon="6.17524">
        <ele>434</ele>
        <time>2024-03-25T13:25:15Z</time>
      </trkpt>
      <trkpt lat="43.56496" lon="6.17537">
        <ele>434.8</ele>
        <time>2024-03-25T13:25:25Z</time>
      </trkpt>
      <trkpt lat="43.56498" lon="6.17549">
        <ele>435.8</ele>
        <time>2024-03-25T13:25:43Z</time>
      </trkpt>
      <trkpt lat="43.56492" lon="6.1756">
        <ele>436.7</ele>
        <time>2024-03-25T13:25:54Z</time>
      </trkpt>
      <trkpt lat="43.5649" lon="6.17572">
        <ele>436.4</ele>
        <time>2024-03-25T13:26:07Z</time>
      </trkpt>
      <trkpt lat="43.56489" lon="6.17585">
        <ele>437.5</ele>
        <time>2024-03-25T13:26:30Z</time>
      </trkpt>
      <trkpt lat="43.56499" lon="6.17586">
        <ele>437.3</ele>
        <time>2024-03-25T13:28:30Z</time>
      </trkpt>
      <trkpt lat="43.56508" lon="6.17586">
        <ele>439.2</ele>
        <time>2024-03-25T13:28:51Z</time>
      </trkpt>
      <trkpt lat="43.56517" lon="6.17579">
        <ele>440.5</ele>
        <time>2024-03-25T13:29:05Z</time>
      </trkpt>
      <trkpt lat="43.56524" lon="6.17571">
        <ele>442.6</ele>
        <time>2024-03-25T13:29:31Z</time>
      </trkpt>
      <trkpt lat="43.56533" lon="6.17566">
        <ele>442.9</ele>
        <time>2024-03-25T13:29:53Z</time>
      </trkpt>
      <trkpt lat="43.56542" lon="6.17567">
        <ele>443.6</ele>
        <time>2024-03-25T13:30:09Z</time>
      </trkpt>
      <trkpt lat="43.56549" lon="6.17576">
        <ele>445.1</ele>
        <time>2024-03-25T13:30:24Z</time>
      </trkpt>
      <trkpt lat="43.56554" lon="6.17586">
        <ele>445.9</ele>
        <time>2024-03-25T13:30:36Z</time>
      </trkpt>
      <trkpt lat="43.56563" lon="6.17584">
        <ele>445.8</ele>
        <time>2024-03-25T13:30:46Z</time>
      </trkpt>
      <trkpt lat="43.56567" lon="6.17596">
        <ele>447</ele>
        <time>2024-03-25T13:31:00Z</time>
      </trkpt>
      <trkpt lat="43.56573" lon="6.17607">
        <ele>446.2</ele>
        <time>2024-03-25T13:31:15Z</time>
      </trkpt>
      <trkpt lat="43.56582" lon="6.17611">
        <ele>447</ele>
        <time>2024-03-25T13:31:27Z</time>
      </trkpt>
      <trkpt lat="43.56591" lon="6.1761">
        <ele>446.5</ele>
        <time>2024-03-25T13:31:43Z</time>
      </trkpt>
      <trkpt lat="43.566" lon="6.17613">
        <ele>445</ele>
        <time>2024-03-25T13:31:59Z</time>
      </trkpt>
      <trkpt lat="43.56609" lon="6.17617">
        <ele>442.1</ele>
        <time>2024-03-25T13:32:19Z</time>
      </trkpt>
      <trkpt lat="43.56614" lon="6.17627">
        <ele>442.2</ele>
        <time>2024-03-25T13:33:06Z</time>
      </trkpt>
      <trkpt lat="43.56624" lon="6.17628">
        <ele>442.7</ele>
        <time>2024-03-25T13:34:32Z</time>
      </trkpt>
      <trkpt lat="43.56615" lon="6.17628">
        <ele>442.5</ele>
        <time>2024-03-25T13:35:17Z</time>
      </trkpt>
      <trkpt lat="43.56606" lon="6.17624">
        <ele>443.7</ele>
        <time>2024-03-25T13:36:34Z</time>
      </trkpt>
      <trkpt lat="43.56601" lon="6.17634">
        <ele>443.8</ele>
        <time>2024-03-25T13:37:54Z</time>
      </trkpt>
      <trkpt lat="43.56594" lon="6.17643">
        <ele>441.1</ele>
        <time>2024-03-25T13:38:11Z</time>
      </trkpt>
      <trkpt lat="43.56588" lon="6.17653">
        <ele>440.4</ele>
        <time>2024-03-25T13:38:39Z</time>
      </trkpt>
      <trkpt lat="43.56582" lon="6.17663">
        <ele>436.4</ele>
        <time>2024-03-25T13:38:56Z</time>
      </trkpt>
      <trkpt lat="43.56577" lon="6.17674">
        <ele>433.4</ele>
        <time>2024-03-25T13:39:15Z</time>
      </trkpt>
      <trkpt lat="43.56571" lon="6.17683">
        <ele>430.9</ele>
        <time>2024-03-25T13:39:30Z</time>
      </trkpt>
      <trkpt lat="43.56562" lon="6.17688">
        <ele>429.2</ele>
        <time>2024-03-25T13:39:53Z</time>
      </trkpt>
      <trkpt lat="43.56556" lon="6.17697">
        <ele>426.5</ele>
        <time>2024-03-25T13:40:07Z</time>
      </trkpt>
      <trkpt lat="43.56547" lon="6.17702">
        <ele>424</ele>
        <time>2024-03-25T13:40:21Z</time>
      </trkpt>
      <trkpt lat="43.5654" lon="6.17709">
        <ele>422</ele>
        <time>2024-03-25T13:40:37Z</time>
      </trkpt>
      <trkpt lat="43.56548" lon="6.17715">
        <ele>417</ele>
        <time>2024-03-25T13:41:23Z</time>
      </trkpt>
      <trkpt lat="43.56539" lon="6.17721">
        <ele>415.4</ele>
        <time>2024-03-25T13:42:24Z</time>
      </trkpt>
      <trkpt lat="43.56531" lon="6.17727">
        <ele>413.1</ele>
        <time>2024-03-25T13:42:47Z</time>
      </trkpt>
      <trkpt lat="43.56539" lon="6.17732">
        <ele>410.4</ele>
        <time>2024-03-25T13:43:30Z</time>
      </trkpt>
      <trkpt lat="43.56548" lon="6.17737">
        <ele>409.6</ele>
        <time>2024-03-25T13:43:45Z</time>
      </trkpt>
      <trkpt lat="43.56558" lon="6.17739">
        <ele>406.9</ele>
        <time>2024-03-25T13:44:02Z</time>
      </trkpt>
      <trkpt lat="43.56567" lon="6.17739">
        <ele>404.2</ele>
        <time>2024-03-25T13:44:16Z</time>
      </trkpt>
      <trkpt lat="43.56576" lon="6.17736">
        <ele>404.8</ele>
        <time>2024-03-25T13:44:31Z</time>
      </trkpt>
      <trkpt lat="43.56585" lon="6.17736">
        <ele>403.5</ele>
        <time>2024-03-25T13:44:46Z</time>
      </trkpt>
      <trkpt lat="43.56595" lon="6.17739">
        <ele>401.7</ele>
        <time>2024-03-25T13:45:00Z</time>
      </trkpt>
      <trkpt lat="43.56604" lon="6.1774">
        <ele>399.5</ele>
        <time>2024-03-25T13:45:14Z</time>
      </trkpt>
      <trkpt lat="43.56613" lon="6.17742">
        <ele>397.6</ele>
        <time>2024-03-25T13:45:28Z</time>
      </trkpt>
      <trkpt lat="43.56623" lon="6.17743">
        <ele>395.8</ele>
        <time>2024-03-25T13:45:41Z</time>
      </trkpt>
      <trkpt lat="43.56632" lon="6.17739">
        <ele>393.9</ele>
        <time>2024-03-25T13:45:55Z</time>
      </trkpt>
      <trkpt lat="43.56641" lon="6.17743">
        <ele>391.9</ele>
        <time>2024-03-25T13:46:11Z</time>
      </trkpt>
      <trkpt lat="43.5665" lon="6.17742">
        <ele>390</ele>
        <time>2024-03-25T13:46:28Z</time>
      </trkpt>
      <trkpt lat="43.56653" lon="6.17754">
        <ele>387.7</ele>
        <time>2024-03-25T13:46:44Z</time>
      </trkpt>
      <trkpt lat="43.56646" lon="6.17763">
        <ele>385.4</ele>
        <time>2024-03-25T13:46:57Z</time>
      </trkpt>
      <trkpt lat="43.56638" lon="6.17768">
        <ele>384.1</ele>
        <time>2024-03-25T13:47:14Z</time>
      </trkpt>
      <trkpt lat="43.56631" lon="6.17778">
        <ele>383.7</ele>
        <time>2024-03-25T13:47:24Z</time>
      </trkpt>
      <trkpt lat="43.56631" lon="6.17791">
        <ele>382.4</ele>
        <time>2024-03-25T13:47:38Z</time>
      </trkpt>
      <trkpt lat="43.56629" lon="6.17794">
        <ele>380.3</ele>
        <time>2024-03-25T13:48:31Z</time>
      </trkpt>
    </trkseg>
  </trk>
</gpx>